<?xml version="1.0" encoding="UTF-8" ?>
<gpx version="1.1" xmlns:xsi="http://www.w3.org/2001/XMLSchema-instance" 
    xmlns="http://www.topografix.com/GPX/1/1" 
    xsi:schemaLocation="http://www.topografix.com/GPX/1/1 http://www.topografix.com/GPX/1/1/gpx.xsd" 
    creator="Openrunner - https://www.openrunner.com" >	<trk>
						<name>Gravel de la CM-1ère boucle-34km-650m+-16034155</name>
						<trkseg>
					<trkpt lat="48.012650" lon="6.588760">
						<ele>414</ele>
						<time>2023-07-03T06:49:26Z</time>
					</trkpt>
					<trkpt lat="48.012580" lon="6.588280">
						<ele>415</ele>
						<time>2023-07-03T06:49:32Z</time>
					</trkpt>
					<trkpt lat="48.012570" lon="6.588060">
						<ele>415</ele>
						<time>2023-07-03T06:49:34Z</time>
					</trkpt>
					<trkpt lat="48.012530" lon="6.587980">
						<ele>415</ele>
						<time>2023-07-03T06:49:36Z</time>
					</trkpt>
					<trkpt lat="48.012550" lon="6.587800">
						<ele>414</ele>
						<time>2023-07-03T06:49:38Z</time>
					</trkpt>
					<trkpt lat="48.012880" lon="6.588060">
						<ele>412</ele>
						<time>2023-07-03T06:49:44Z</time>
					</trkpt>
					<trkpt lat="48.013840" lon="6.589350">
						<ele>405</ele>
						<time>2023-07-03T06:50:07Z</time>
					</trkpt>
					<trkpt lat="48.013850" lon="6.589420">
						<ele>405</ele>
						<time>2023-07-03T06:50:08Z</time>
					</trkpt>
					<trkpt lat="48.013840" lon="6.589500">
						<ele>405</ele>
						<time>2023-07-03T06:50:09Z</time>
					</trkpt>
					<trkpt lat="48.013640" lon="6.590080">
						<ele>406</ele>
						<time>2023-07-03T06:50:17Z</time>
					</trkpt>
					<trkpt lat="48.013980" lon="6.590560">
						<ele>404</ele>
						<time>2023-07-03T06:50:25Z</time>
					</trkpt>
					<trkpt lat="48.014250" lon="6.590640">
						<ele>401</ele>
						<time>2023-07-03T06:50:30Z</time>
					</trkpt>
					<trkpt lat="48.014260" lon="6.592200">
						<ele>398</ele>
						<time>2023-07-03T06:50:49Z</time>
					</trkpt>
					<trkpt lat="48.014320" lon="6.593800">
						<ele>394</ele>
						<time>2023-07-03T06:51:08Z</time>
					</trkpt>
					<trkpt lat="48.014330" lon="6.594760">
						<ele>393</ele>
						<time>2023-07-03T06:51:19Z</time>
					</trkpt>
					<trkpt lat="48.014360" lon="6.595110">
						<ele>393</ele>
						<time>2023-07-03T06:51:24Z</time>
					</trkpt>
					<trkpt lat="48.014340" lon="6.595260">
						<ele>393</ele>
						<time>2023-07-03T06:51:25Z</time>
					</trkpt>
					<trkpt lat="48.014410" lon="6.595900">
						<ele>391</ele>
						<time>2023-07-03T06:51:33Z</time>
					</trkpt>
					<trkpt lat="48.014380" lon="6.595990">
						<ele>391</ele>
						<time>2023-07-03T06:51:34Z</time>
					</trkpt>
					<trkpt lat="48.014390" lon="6.596130">
						<ele>391</ele>
						<time>2023-07-03T06:51:36Z</time>
					</trkpt>
					<trkpt lat="48.014190" lon="6.596640">
						<ele>391</ele>
						<time>2023-07-03T06:51:43Z</time>
					</trkpt>
					<trkpt lat="48.013770" lon="6.597400">
						<ele>390</ele>
						<time>2023-07-03T06:51:55Z</time>
					</trkpt>
					<trkpt lat="48.012850" lon="6.598940">
						<ele>389</ele>
						<time>2023-07-03T06:52:19Z</time>
					</trkpt>
					<trkpt lat="48.012610" lon="6.599470">
						<ele>390</ele>
						<time>2023-07-03T06:52:27Z</time>
					</trkpt>
					<trkpt lat="48.012500" lon="6.599920">
						<ele>391</ele>
						<time>2023-07-03T06:52:33Z</time>
					</trkpt>
					<trkpt lat="48.012420" lon="6.600420">
						<ele>390</ele>
						<time>2023-07-03T06:52:39Z</time>
					</trkpt>
					<trkpt lat="48.012300" lon="6.600880">
						<ele>388</ele>
						<time>2023-07-03T06:52:45Z</time>
					</trkpt>
					<trkpt lat="48.012170" lon="6.601090">
						<ele>389</ele>
						<time>2023-07-03T06:52:48Z</time>
					</trkpt>
					<trkpt lat="48.011920" lon="6.601340">
						<ele>389</ele>
						<time>2023-07-03T06:52:53Z</time>
					</trkpt>
					<trkpt lat="48.011830" lon="6.601420">
						<ele>389</ele>
						<time>2023-07-03T06:52:55Z</time>
					</trkpt>
					<trkpt lat="48.011790" lon="6.601530">
						<ele>389</ele>
						<time>2023-07-03T06:52:57Z</time>
					</trkpt>
					<trkpt lat="48.011780" lon="6.601640">
						<ele>389</ele>
						<time>2023-07-03T06:52:58Z</time>
					</trkpt>
					<trkpt lat="48.011790" lon="6.601760">
						<ele>388</ele>
						<time>2023-07-03T06:52:59Z</time>
					</trkpt>
					<trkpt lat="48.011880" lon="6.602320">
						<ele>387</ele>
						<time>2023-07-03T06:53:06Z</time>
					</trkpt>
					<trkpt lat="48.011860" lon="6.602670">
						<ele>387</ele>
						<time>2023-07-03T06:53:10Z</time>
					</trkpt>
					<trkpt lat="48.011720" lon="6.603050">
						<ele>386</ele>
						<time>2023-07-03T06:53:16Z</time>
					</trkpt>
					<trkpt lat="48.011680" lon="6.603360">
						<ele>385</ele>
						<time>2023-07-03T06:53:19Z</time>
					</trkpt>
					<trkpt lat="48.011650" lon="6.604680">
						<ele>386</ele>
						<time>2023-07-03T06:53:35Z</time>
					</trkpt>
					<trkpt lat="48.011670" lon="6.604800">
						<ele>386</ele>
						<time>2023-07-03T06:53:37Z</time>
					</trkpt>
					<trkpt lat="48.011760" lon="6.605020">
						<ele>386</ele>
						<time>2023-07-03T06:53:40Z</time>
					</trkpt>
					<trkpt lat="48.012060" lon="6.605570">
						<ele>386</ele>
						<time>2023-07-03T06:53:48Z</time>
					</trkpt>
					<trkpt lat="48.012080" lon="6.605660">
						<ele>386</ele>
						<time>2023-07-03T06:53:49Z</time>
					</trkpt>
					<trkpt lat="48.012080" lon="6.605780">
						<ele>386</ele>
						<time>2023-07-03T06:53:51Z</time>
					</trkpt>
					<trkpt lat="48.012050" lon="6.605880">
						<ele>386</ele>
						<time>2023-07-03T06:53:52Z</time>
					</trkpt>
					<trkpt lat="48.011630" lon="6.607000">
						<ele>387</ele>
						<time>2023-07-03T06:54:07Z</time>
					</trkpt>
					<trkpt lat="48.011350" lon="6.607830">
						<ele>391</ele>
						<time>2023-07-03T06:54:18Z</time>
					</trkpt>
					<trkpt lat="48.011130" lon="6.608570">
						<ele>394</ele>
						<time>2023-07-03T06:54:28Z</time>
					</trkpt>
					<trkpt lat="48.010850" lon="6.609630">
						<ele>392</ele>
						<time>2023-07-03T06:54:42Z</time>
					</trkpt>
					<trkpt lat="48.010750" lon="6.610170">
						<ele>389</ele>
						<time>2023-07-03T06:54:48Z</time>
					</trkpt>
					<trkpt lat="48.010630" lon="6.610620">
						<ele>389</ele>
						<time>2023-07-03T06:54:54Z</time>
					</trkpt>
					<trkpt lat="48.010520" lon="6.610800">
						<ele>389</ele>
						<time>2023-07-03T06:54:57Z</time>
					</trkpt>
					<trkpt lat="48.010300" lon="6.611010">
						<ele>389</ele>
						<time>2023-07-03T06:55:02Z</time>
					</trkpt>
					<trkpt lat="48.009980" lon="6.611250">
						<ele>390</ele>
						<time>2023-07-03T06:55:08Z</time>
					</trkpt>
					<trkpt lat="48.009880" lon="6.611370">
						<ele>390</ele>
						<time>2023-07-03T06:55:10Z</time>
					</trkpt>
					<trkpt lat="48.009700" lon="6.611690">
						<ele>390</ele>
						<time>2023-07-03T06:55:15Z</time>
					</trkpt>
					<trkpt lat="48.009240" lon="6.612870">
						<ele>390</ele>
						<time>2023-07-03T06:55:31Z</time>
					</trkpt>
					<trkpt lat="48.009150" lon="6.613110">
						<ele>390</ele>
						<time>2023-07-03T06:55:35Z</time>
					</trkpt>
					<trkpt lat="48.009110" lon="6.613300">
						<ele>389</ele>
						<time>2023-07-03T06:55:37Z</time>
					</trkpt>
					<trkpt lat="48.009030" lon="6.614060">
						<ele>388</ele>
						<time>2023-07-03T06:55:46Z</time>
					</trkpt>
					<trkpt lat="48.009000" lon="6.614530">
						<ele>387</ele>
						<time>2023-07-03T06:55:52Z</time>
					</trkpt>
					<trkpt lat="48.008970" lon="6.614870">
						<ele>386</ele>
						<time>2023-07-03T06:55:56Z</time>
					</trkpt>
					<trkpt lat="48.008910" lon="6.616340">
						<ele>389</ele>
						<time>2023-07-03T06:56:13Z</time>
					</trkpt>
					<trkpt lat="48.008880" lon="6.616540">
						<ele>389</ele>
						<time>2023-07-03T06:56:16Z</time>
					</trkpt>
					<trkpt lat="48.008790" lon="6.616880">
						<ele>389</ele>
						<time>2023-07-03T06:56:20Z</time>
					</trkpt>
					<trkpt lat="48.008600" lon="6.617420">
						<ele>389</ele>
						<time>2023-07-03T06:56:28Z</time>
					</trkpt>
					<trkpt lat="48.008260" lon="6.618260">
						<ele>390</ele>
						<time>2023-07-03T06:56:39Z</time>
					</trkpt>
					<trkpt lat="48.008240" lon="6.618430">
						<ele>390</ele>
						<time>2023-07-03T06:56:41Z</time>
					</trkpt>
					<trkpt lat="48.008260" lon="6.619030">
						<ele>390</ele>
						<time>2023-07-03T06:56:48Z</time>
					</trkpt>
					<trkpt lat="48.008210" lon="6.619610">
						<ele>390</ele>
						<time>2023-07-03T06:56:55Z</time>
					</trkpt>
					<trkpt lat="48.008160" lon="6.619870">
						<ele>390</ele>
						<time>2023-07-03T06:56:59Z</time>
					</trkpt>
					<trkpt lat="48.008020" lon="6.620240">
						<ele>389</ele>
						<time>2023-07-03T06:57:04Z</time>
					</trkpt>
					<trkpt lat="48.007330" lon="6.621800">
						<ele>388</ele>
						<time>2023-07-03T06:57:26Z</time>
					</trkpt>
					<trkpt lat="48.006760" lon="6.623100">
						<ele>386</ele>
						<time>2023-07-03T06:57:44Z</time>
					</trkpt>
					<trkpt lat="48.006520" lon="6.623690">
						<ele>387</ele>
						<time>2023-07-03T06:57:53Z</time>
					</trkpt>
					<trkpt lat="48.006080" lon="6.625740">
						<ele>389</ele>
						<time>2023-07-03T06:58:18Z</time>
					</trkpt>
					<trkpt lat="48.005720" lon="6.627510">
						<ele>388</ele>
						<time>2023-07-03T06:58:40Z</time>
					</trkpt>
					<trkpt lat="48.005710" lon="6.627730">
						<ele>388</ele>
						<time>2023-07-03T06:58:43Z</time>
					</trkpt>
					<trkpt lat="48.005760" lon="6.628760">
						<ele>388</ele>
						<time>2023-07-03T06:58:55Z</time>
					</trkpt>
					<trkpt lat="48.005730" lon="6.628980">
						<ele>388</ele>
						<time>2023-07-03T06:58:58Z</time>
					</trkpt>
					<trkpt lat="48.005670" lon="6.629330">
						<ele>388</ele>
						<time>2023-07-03T06:59:02Z</time>
					</trkpt>
					<trkpt lat="48.005660" lon="6.629410">
						<ele>388</ele>
						<time>2023-07-03T06:59:03Z</time>
					</trkpt>
					<trkpt lat="48.005410" lon="6.630040">
						<ele>389</ele>
						<time>2023-07-03T06:59:12Z</time>
					</trkpt>
					<trkpt lat="48.005240" lon="6.631000">
						<ele>389</ele>
						<time>2023-07-03T06:59:24Z</time>
					</trkpt>
					<trkpt lat="48.005090" lon="6.631380">
						<ele>388</ele>
						<time>2023-07-03T06:59:29Z</time>
					</trkpt>
					<trkpt lat="48.005020" lon="6.631520">
						<ele>388</ele>
						<time>2023-07-03T06:59:31Z</time>
					</trkpt>
					<trkpt lat="48.004860" lon="6.631830">
						<ele>388</ele>
						<time>2023-07-03T06:59:36Z</time>
					</trkpt>
					<trkpt lat="48.004770" lon="6.632040">
						<ele>388</ele>
						<time>2023-07-03T06:59:39Z</time>
					</trkpt>
					<trkpt lat="48.003100" lon="6.635610">
						<ele>387</ele>
						<time>2023-07-03T07:00:30Z</time>
					</trkpt>
					<trkpt lat="48.003050" lon="6.635710">
						<ele>387</ele>
						<time>2023-07-03T07:00:32Z</time>
					</trkpt>
					<trkpt lat="48.002590" lon="6.636690">
						<ele>390</ele>
						<time>2023-07-03T07:00:46Z</time>
					</trkpt>
					<trkpt lat="48.002170" lon="6.636500">
						<ele>389</ele>
						<time>2023-07-03T07:00:54Z</time>
					</trkpt>
					<trkpt lat="47.998850" lon="6.635030">
						<ele>389</ele>
						<time>2023-07-03T07:01:56Z</time>
					</trkpt>
					<trkpt lat="47.998750" lon="6.634970">
						<ele>389</ele>
						<time>2023-07-03T07:01:58Z</time>
					</trkpt>
					<trkpt lat="47.998640" lon="6.634840">
						<ele>389</ele>
						<time>2023-07-03T07:02:00Z</time>
					</trkpt>
					<trkpt lat="47.998560" lon="6.634720">
						<ele>389</ele>
						<time>2023-07-03T07:02:02Z</time>
					</trkpt>
					<trkpt lat="47.998480" lon="6.634640">
						<ele>389</ele>
						<time>2023-07-03T07:02:04Z</time>
					</trkpt>
					<trkpt lat="47.998270" lon="6.634570">
						<ele>389</ele>
						<time>2023-07-03T07:02:08Z</time>
					</trkpt>
					<trkpt lat="47.997870" lon="6.634530">
						<ele>389</ele>
						<time>2023-07-03T07:02:15Z</time>
					</trkpt>
					<trkpt lat="47.997550" lon="6.634450">
						<ele>389</ele>
						<time>2023-07-03T07:02:21Z</time>
					</trkpt>
					<trkpt lat="47.996180" lon="6.633830">
						<ele>392</ele>
						<time>2023-07-03T07:02:46Z</time>
					</trkpt>
					<trkpt lat="47.995890" lon="6.633670">
						<ele>391</ele>
						<time>2023-07-03T07:02:51Z</time>
					</trkpt>
					<trkpt lat="47.995790" lon="6.633670">
						<ele>392</ele>
						<time>2023-07-03T07:02:53Z</time>
					</trkpt>
					<trkpt lat="47.995690" lon="6.633560">
						<ele>392</ele>
						<time>2023-07-03T07:02:55Z</time>
					</trkpt>
					<trkpt lat="47.995220" lon="6.633330">
						<ele>393</ele>
						<time>2023-07-03T07:03:04Z</time>
					</trkpt>
					<trkpt lat="47.994700" lon="6.633010">
						<ele>393</ele>
						<time>2023-07-03T07:03:14Z</time>
					</trkpt>
					<trkpt lat="47.994150" lon="6.632690">
						<ele>392</ele>
						<time>2023-07-03T07:03:25Z</time>
					</trkpt>
					<trkpt lat="47.993860" lon="6.632550">
						<ele>392</ele>
						<time>2023-07-03T07:03:30Z</time>
					</trkpt>
					<trkpt lat="47.992450" lon="6.631970">
						<ele>393</ele>
						<time>2023-07-03T07:03:56Z</time>
					</trkpt>
					<trkpt lat="47.992240" lon="6.631950">
						<ele>394</ele>
						<time>2023-07-03T07:04:00Z</time>
					</trkpt>
					<trkpt lat="47.992020" lon="6.631970">
						<ele>394</ele>
						<time>2023-07-03T07:04:04Z</time>
					</trkpt>
					<trkpt lat="47.992030" lon="6.632130">
						<ele>394</ele>
						<time>2023-07-03T07:04:06Z</time>
					</trkpt>
					<trkpt lat="47.992070" lon="6.632530">
						<ele>395</ele>
						<time>2023-07-03T07:04:11Z</time>
					</trkpt>
					<trkpt lat="47.992070" lon="6.633050">
						<ele>395</ele>
						<time>2023-07-03T07:04:17Z</time>
					</trkpt>
					<trkpt lat="47.992110" lon="6.633350">
						<ele>396</ele>
						<time>2023-07-03T07:04:20Z</time>
					</trkpt>
					<trkpt lat="47.992350" lon="6.634690">
						<ele>401</ele>
						<time>2023-07-03T07:04:37Z</time>
					</trkpt>
					<trkpt lat="47.992400" lon="6.634780">
						<ele>402</ele>
						<time>2023-07-03T07:04:38Z</time>
					</trkpt>
					<trkpt lat="47.992600" lon="6.635000">
						<ele>406</ele>
						<time>2023-07-03T07:04:43Z</time>
					</trkpt>
					<trkpt lat="47.992920" lon="6.635260">
						<ele>410</ele>
						<time>2023-07-03T07:04:49Z</time>
					</trkpt>
					<trkpt lat="47.993130" lon="6.635510">
						<ele>413</ele>
						<time>2023-07-03T07:04:54Z</time>
					</trkpt>
					<trkpt lat="47.993350" lon="6.635820">
						<ele>415</ele>
						<time>2023-07-03T07:04:59Z</time>
					</trkpt>
					<trkpt lat="47.993560" lon="6.636180">
						<ele>417</ele>
						<time>2023-07-03T07:05:05Z</time>
					</trkpt>
					<trkpt lat="47.993830" lon="6.636570">
						<ele>417</ele>
						<time>2023-07-03T07:05:12Z</time>
					</trkpt>
					<trkpt lat="47.994010" lon="6.636750">
						<ele>417</ele>
						<time>2023-07-03T07:05:16Z</time>
					</trkpt>
					<trkpt lat="47.994490" lon="6.637010">
						<ele>416</ele>
						<time>2023-07-03T07:05:25Z</time>
					</trkpt>
					<trkpt lat="47.995060" lon="6.637280">
						<ele>414</ele>
						<time>2023-07-03T07:05:35Z</time>
					</trkpt>
					<trkpt lat="47.995160" lon="6.637380">
						<ele>414</ele>
						<time>2023-07-03T07:05:38Z</time>
					</trkpt>
					<trkpt lat="47.995250" lon="6.637520">
						<ele>415</ele>
						<time>2023-07-03T07:05:40Z</time>
					</trkpt>
					<trkpt lat="47.995630" lon="6.638300">
						<ele>419</ele>
						<time>2023-07-03T07:05:51Z</time>
					</trkpt>
					<trkpt lat="47.996050" lon="6.639210">
						<ele>419</ele>
						<time>2023-07-03T07:06:04Z</time>
					</trkpt>
					<trkpt lat="47.996530" lon="6.639990">
						<ele>416</ele>
						<time>2023-07-03T07:06:17Z</time>
					</trkpt>
					<trkpt lat="47.996620" lon="6.640180">
						<ele>415</ele>
						<time>2023-07-03T07:06:20Z</time>
					</trkpt>
					<trkpt lat="47.996710" lon="6.640430">
						<ele>414</ele>
						<time>2023-07-03T07:06:23Z</time>
					</trkpt>
					<trkpt lat="47.996890" lon="6.641670">
						<ele>413</ele>
						<time>2023-07-03T07:06:38Z</time>
					</trkpt>
					<trkpt lat="47.997010" lon="6.642190">
						<ele>413</ele>
						<time>2023-07-03T07:06:45Z</time>
					</trkpt>
					<trkpt lat="47.997140" lon="6.642650">
						<ele>411</ele>
						<time>2023-07-03T07:06:51Z</time>
					</trkpt>
					<trkpt lat="47.997360" lon="6.643140">
						<ele>408</ele>
						<time>2023-07-03T07:06:58Z</time>
					</trkpt>
					<trkpt lat="47.997460" lon="6.643300">
						<ele>407</ele>
						<time>2023-07-03T07:07:00Z</time>
					</trkpt>
					<trkpt lat="47.997510" lon="6.643390">
						<ele>406</ele>
						<time>2023-07-03T07:07:02Z</time>
					</trkpt>
					<trkpt lat="47.997720" lon="6.643670">
						<ele>406</ele>
						<time>2023-07-03T07:07:07Z</time>
					</trkpt>
					<trkpt lat="47.998040" lon="6.643840">
						<ele>404</ele>
						<time>2023-07-03T07:07:13Z</time>
					</trkpt>
					<trkpt lat="47.998140" lon="6.643960">
						<ele>404</ele>
						<time>2023-07-03T07:07:15Z</time>
					</trkpt>
					<trkpt lat="47.998200" lon="6.644130">
						<ele>404</ele>
						<time>2023-07-03T07:07:17Z</time>
					</trkpt>
					<trkpt lat="47.998530" lon="6.644010">
						<ele>402</ele>
						<time>2023-07-03T07:07:24Z</time>
					</trkpt>
					<trkpt lat="47.998570" lon="6.644450">
						<ele>402</ele>
						<time>2023-07-03T07:07:29Z</time>
					</trkpt>
					<trkpt lat="47.998640" lon="6.645390">
						<ele>402</ele>
						<time>2023-07-03T07:07:40Z</time>
					</trkpt>
					<trkpt lat="47.998720" lon="6.647080">
						<ele>402</ele>
						<time>2023-07-03T07:08:00Z</time>
					</trkpt>
					<trkpt lat="47.998770" lon="6.647350">
						<ele>402</ele>
						<time>2023-07-03T07:08:04Z</time>
					</trkpt>
					<trkpt lat="47.998890" lon="6.647680">
						<ele>401</ele>
						<time>2023-07-03T07:08:08Z</time>
					</trkpt>
					<trkpt lat="47.999180" lon="6.648250">
						<ele>398</ele>
						<time>2023-07-03T07:08:17Z</time>
					</trkpt>
					<trkpt lat="47.999370" lon="6.648560">
						<ele>398</ele>
						<time>2023-07-03T07:08:22Z</time>
					</trkpt>
					<trkpt lat="47.999340" lon="6.648640">
						<ele>399</ele>
						<time>2023-07-03T07:08:23Z</time>
					</trkpt>
					<trkpt lat="48.000000" lon="6.650390">
						<ele>403</ele>
						<time>2023-07-03T07:08:47Z</time>
					</trkpt>
					<trkpt lat="48.000260" lon="6.651040">
						<ele>403</ele>
						<time>2023-07-03T07:08:56Z</time>
					</trkpt>
					<trkpt lat="48.000140" lon="6.651200">
						<ele>404</ele>
						<time>2023-07-03T07:08:58Z</time>
					</trkpt>
					<trkpt lat="47.999860" lon="6.651870">
						<ele>412</ele>
						<time>2023-07-03T07:09:08Z</time>
					</trkpt>
					<trkpt lat="47.999830" lon="6.652500">
						<ele>416</ele>
						<time>2023-07-03T07:09:15Z</time>
					</trkpt>
					<trkpt lat="47.999860" lon="6.652710">
						<ele>416</ele>
						<time>2023-07-03T07:09:18Z</time>
					</trkpt>
					<trkpt lat="47.999960" lon="6.653240">
						<ele>416</ele>
						<time>2023-07-03T07:09:25Z</time>
					</trkpt>
					<trkpt lat="48.000000" lon="6.653640">
						<ele>417</ele>
						<time>2023-07-03T07:09:29Z</time>
					</trkpt>
					<trkpt lat="48.000110" lon="6.654600">
						<ele>422</ele>
						<time>2023-07-03T07:09:41Z</time>
					</trkpt>
					<trkpt lat="48.000170" lon="6.654810">
						<ele>422</ele>
						<time>2023-07-03T07:09:44Z</time>
					</trkpt>
					<trkpt lat="48.000230" lon="6.654960">
						<ele>423</ele>
						<time>2023-07-03T07:09:46Z</time>
					</trkpt>
					<trkpt lat="48.000400" lon="6.655160">
						<ele>422</ele>
						<time>2023-07-03T07:09:50Z</time>
					</trkpt>
					<trkpt lat="48.000670" lon="6.655550">
						<ele>421</ele>
						<time>2023-07-03T07:09:56Z</time>
					</trkpt>
					<trkpt lat="48.000920" lon="6.656040">
						<ele>421</ele>
						<time>2023-07-03T07:10:04Z</time>
					</trkpt>
					<trkpt lat="48.001170" lon="6.656450">
						<ele>421</ele>
						<time>2023-07-03T07:10:10Z</time>
					</trkpt>
					<trkpt lat="48.001280" lon="6.656760">
						<ele>421</ele>
						<time>2023-07-03T07:10:14Z</time>
					</trkpt>
					<trkpt lat="48.001390" lon="6.657400">
						<ele>422</ele>
						<time>2023-07-03T07:10:22Z</time>
					</trkpt>
					<trkpt lat="48.001420" lon="6.657500">
						<ele>422</ele>
						<time>2023-07-03T07:10:24Z</time>
					</trkpt>
					<trkpt lat="48.001460" lon="6.657600">
						<ele>421</ele>
						<time>2023-07-03T07:10:25Z</time>
					</trkpt>
					<trkpt lat="48.001410" lon="6.657760">
						<ele>422</ele>
						<time>2023-07-03T07:10:27Z</time>
					</trkpt>
					<trkpt lat="48.000880" lon="6.658980">
						<ele>430</ele>
						<time>2023-07-03T07:10:44Z</time>
					</trkpt>
					<trkpt lat="48.000900" lon="6.659130">
						<ele>430</ele>
						<time>2023-07-03T07:10:46Z</time>
					</trkpt>
					<trkpt lat="48.000900" lon="6.659380">
						<ele>431</ele>
						<time>2023-07-03T07:10:49Z</time>
					</trkpt>
					<trkpt lat="48.000860" lon="6.659650">
						<ele>434</ele>
						<time>2023-07-03T07:10:52Z</time>
					</trkpt>
					<trkpt lat="48.000750" lon="6.660050">
						<ele>437</ele>
						<time>2023-07-03T07:10:58Z</time>
					</trkpt>
					<trkpt lat="48.000530" lon="6.660500">
						<ele>440</ele>
						<time>2023-07-03T07:11:04Z</time>
					</trkpt>
					<trkpt lat="48.000410" lon="6.660780">
						<ele>440</ele>
						<time>2023-07-03T07:11:08Z</time>
					</trkpt>
					<trkpt lat="48.000340" lon="6.661400">
						<ele>442</ele>
						<time>2023-07-03T07:11:16Z</time>
					</trkpt>
					<trkpt lat="48.000310" lon="6.661560">
						<ele>442</ele>
						<time>2023-07-03T07:11:18Z</time>
					</trkpt>
					<trkpt lat="48.000250" lon="6.661690">
						<ele>443</ele>
						<time>2023-07-03T07:11:20Z</time>
					</trkpt>
					<trkpt lat="48.000110" lon="6.661870">
						<ele>446</ele>
						<time>2023-07-03T07:11:23Z</time>
					</trkpt>
					<trkpt lat="47.999720" lon="6.662130">
						<ele>453</ele>
						<time>2023-07-03T07:11:30Z</time>
					</trkpt>
					<trkpt lat="47.999420" lon="6.662510">
						<ele>456</ele>
						<time>2023-07-03T07:11:37Z</time>
					</trkpt>
					<trkpt lat="47.999060" lon="6.662790">
						<ele>463</ele>
						<time>2023-07-03T07:11:45Z</time>
					</trkpt>
					<trkpt lat="47.998870" lon="6.662980">
						<ele>467</ele>
						<time>2023-07-03T07:11:49Z</time>
					</trkpt>
					<trkpt lat="47.998450" lon="6.663290">
						<ele>471</ele>
						<time>2023-07-03T07:11:57Z</time>
					</trkpt>
					<trkpt lat="47.998410" lon="6.663360">
						<ele>472</ele>
						<time>2023-07-03T07:11:58Z</time>
					</trkpt>
					<trkpt lat="47.998390" lon="6.663440">
						<ele>473</ele>
						<time>2023-07-03T07:11:59Z</time>
					</trkpt>
					<trkpt lat="47.998360" lon="6.663620">
						<ele>476</ele>
						<time>2023-07-03T07:12:01Z</time>
					</trkpt>
					<trkpt lat="47.998250" lon="6.663830">
						<ele>480</ele>
						<time>2023-07-03T07:12:05Z</time>
					</trkpt>
					<trkpt lat="47.998070" lon="6.664260">
						<ele>486</ele>
						<time>2023-07-03T07:12:11Z</time>
					</trkpt>
					<trkpt lat="47.997820" lon="6.664610">
						<ele>491</ele>
						<time>2023-07-03T07:12:17Z</time>
					</trkpt>
					<trkpt lat="47.997430" lon="6.665080">
						<ele>494</ele>
						<time>2023-07-03T07:12:26Z</time>
					</trkpt>
					<trkpt lat="47.997290" lon="6.665350">
						<ele>499</ele>
						<time>2023-07-03T07:12:30Z</time>
					</trkpt>
					<trkpt lat="47.997250" lon="6.665600">
						<ele>503</ele>
						<time>2023-07-03T07:12:33Z</time>
					</trkpt>
					<trkpt lat="47.997230" lon="6.666090">
						<ele>509</ele>
						<time>2023-07-03T07:12:39Z</time>
					</trkpt>
					<trkpt lat="47.997240" lon="6.667100">
						<ele>527</ele>
						<time>2023-07-03T07:12:51Z</time>
					</trkpt>
					<trkpt lat="47.997220" lon="6.667290">
						<ele>531</ele>
						<time>2023-07-03T07:12:53Z</time>
					</trkpt>
					<trkpt lat="47.997190" lon="6.667370">
						<ele>531</ele>
						<time>2023-07-03T07:12:54Z</time>
					</trkpt>
					<trkpt lat="47.997100" lon="6.667410">
						<ele>530</ele>
						<time>2023-07-03T07:12:56Z</time>
					</trkpt>
					<trkpt lat="47.996860" lon="6.667360">
						<ele>523</ele>
						<time>2023-07-03T07:13:00Z</time>
					</trkpt>
					<trkpt lat="47.996790" lon="6.667260">
						<ele>519</ele>
						<time>2023-07-03T07:13:02Z</time>
					</trkpt>
					<trkpt lat="47.996720" lon="6.667090">
						<ele>514</ele>
						<time>2023-07-03T07:13:04Z</time>
					</trkpt>
					<trkpt lat="47.996640" lon="6.667020">
						<ele>511</ele>
						<time>2023-07-03T07:13:06Z</time>
					</trkpt>
					<trkpt lat="47.996560" lon="6.667040">
						<ele>511</ele>
						<time>2023-07-03T07:13:07Z</time>
					</trkpt>
					<trkpt lat="47.996500" lon="6.667180">
						<ele>513</ele>
						<time>2023-07-03T07:13:09Z</time>
					</trkpt>
					<trkpt lat="47.996140" lon="6.667520">
						<ele>516</ele>
						<time>2023-07-03T07:13:17Z</time>
					</trkpt>
					<trkpt lat="47.995820" lon="6.667790">
						<ele>519</ele>
						<time>2023-07-03T07:13:23Z</time>
					</trkpt>
					<trkpt lat="47.995450" lon="6.668040">
						<ele>522</ele>
						<time>2023-07-03T07:13:30Z</time>
					</trkpt>
					<trkpt lat="47.994770" lon="6.668590">
						<ele>526</ele>
						<time>2023-07-03T07:13:44Z</time>
					</trkpt>
					<trkpt lat="47.994530" lon="6.668850">
						<ele>527</ele>
						<time>2023-07-03T07:13:49Z</time>
					</trkpt>
					<trkpt lat="47.994160" lon="6.669440">
						<ele>532</ele>
						<time>2023-07-03T07:13:59Z</time>
					</trkpt>
					<trkpt lat="47.994060" lon="6.669560">
						<ele>534</ele>
						<time>2023-07-03T07:14:01Z</time>
					</trkpt>
					<trkpt lat="47.993900" lon="6.669680">
						<ele>535</ele>
						<time>2023-07-03T07:14:05Z</time>
					</trkpt>
					<trkpt lat="47.993710" lon="6.669860">
						<ele>536</ele>
						<time>2023-07-03T07:14:09Z</time>
					</trkpt>
					<trkpt lat="47.993560" lon="6.670160">
						<ele>540</ele>
						<time>2023-07-03T07:14:13Z</time>
					</trkpt>
					<trkpt lat="47.992920" lon="6.670840">
						<ele>549</ele>
						<time>2023-07-03T07:14:27Z</time>
					</trkpt>
					<trkpt lat="47.992390" lon="6.671320">
						<ele>549</ele>
						<time>2023-07-03T07:14:38Z</time>
					</trkpt>
					<trkpt lat="47.992190" lon="6.671690">
						<ele>553</ele>
						<time>2023-07-03T07:14:44Z</time>
					</trkpt>
					<trkpt lat="47.992050" lon="6.672010">
						<ele>558</ele>
						<time>2023-07-03T07:14:48Z</time>
					</trkpt>
					<trkpt lat="47.991820" lon="6.673010">
						<ele>568</ele>
						<time>2023-07-03T07:15:01Z</time>
					</trkpt>
					<trkpt lat="47.991700" lon="6.673740">
						<ele>572</ele>
						<time>2023-07-03T07:15:10Z</time>
					</trkpt>
					<trkpt lat="47.991610" lon="6.674890">
						<ele>579</ele>
						<time>2023-07-03T07:15:24Z</time>
					</trkpt>
					<trkpt lat="47.991610" lon="6.675350">
						<ele>582</ele>
						<time>2023-07-03T07:15:29Z</time>
					</trkpt>
					<trkpt lat="47.991650" lon="6.675750">
						<ele>586</ele>
						<time>2023-07-03T07:15:34Z</time>
					</trkpt>
					<trkpt lat="47.991800" lon="6.676370">
						<ele>593</ele>
						<time>2023-07-03T07:15:42Z</time>
					</trkpt>
					<trkpt lat="47.991800" lon="6.676620">
						<ele>593</ele>
						<time>2023-07-03T07:15:45Z</time>
					</trkpt>
					<trkpt lat="47.991830" lon="6.676870">
						<ele>593</ele>
						<time>2023-07-03T07:15:48Z</time>
					</trkpt>
					<trkpt lat="47.991890" lon="6.677200">
						<ele>594</ele>
						<time>2023-07-03T07:15:52Z</time>
					</trkpt>
					<trkpt lat="47.992450" lon="6.679230">
						<ele>599</ele>
						<time>2023-07-03T07:16:18Z</time>
					</trkpt>
					<trkpt lat="47.992500" lon="6.679670">
						<ele>597</ele>
						<time>2023-07-03T07:16:23Z</time>
					</trkpt>
					<trkpt lat="47.992620" lon="6.680210">
						<ele>598</ele>
						<time>2023-07-03T07:16:30Z</time>
					</trkpt>
					<trkpt lat="47.992730" lon="6.680580">
						<ele>602</ele>
						<time>2023-07-03T07:16:35Z</time>
					</trkpt>
					<trkpt lat="47.992820" lon="6.680760">
						<ele>605</ele>
						<time>2023-07-03T07:16:38Z</time>
					</trkpt>
					<trkpt lat="47.992980" lon="6.681010">
						<ele>610</ele>
						<time>2023-07-03T07:16:42Z</time>
					</trkpt>
					<trkpt lat="47.993320" lon="6.681420">
						<ele>620</ele>
						<time>2023-07-03T07:16:49Z</time>
					</trkpt>
					<trkpt lat="47.993530" lon="6.681920">
						<ele>627</ele>
						<time>2023-07-03T07:16:56Z</time>
					</trkpt>
					<trkpt lat="47.993630" lon="6.682430">
						<ele>632</ele>
						<time>2023-07-03T07:17:03Z</time>
					</trkpt>
					<trkpt lat="47.993620" lon="6.682790">
						<ele>635</ele>
						<time>2023-07-03T07:17:07Z</time>
					</trkpt>
					<trkpt lat="47.993580" lon="6.683370">
						<ele>641</ele>
						<time>2023-07-03T07:17:14Z</time>
					</trkpt>
					<trkpt lat="47.993510" lon="6.683790">
						<ele>646</ele>
						<time>2023-07-03T07:17:19Z</time>
					</trkpt>
					<trkpt lat="47.993310" lon="6.684660">
						<ele>650</ele>
						<time>2023-07-03T07:17:30Z</time>
					</trkpt>
					<trkpt lat="47.993250" lon="6.685100">
						<ele>652</ele>
						<time>2023-07-03T07:17:35Z</time>
					</trkpt>
					<trkpt lat="47.993290" lon="6.685650">
						<ele>655</ele>
						<time>2023-07-03T07:17:42Z</time>
					</trkpt>
					<trkpt lat="47.993310" lon="6.686230">
						<ele>657</ele>
						<time>2023-07-03T07:17:49Z</time>
					</trkpt>
					<trkpt lat="47.993830" lon="6.688270">
						<ele>680</ele>
						<time>2023-07-03T07:18:15Z</time>
					</trkpt>
					<trkpt lat="47.993980" lon="6.688730">
						<ele>686</ele>
						<time>2023-07-03T07:18:21Z</time>
					</trkpt>
					<trkpt lat="47.994030" lon="6.689270">
						<ele>691</ele>
						<time>2023-07-03T07:18:28Z</time>
					</trkpt>
					<trkpt lat="47.993880" lon="6.690080">
						<ele>698</ele>
						<time>2023-07-03T07:18:38Z</time>
					</trkpt>
					<trkpt lat="47.993750" lon="6.691670">
						<ele>706</ele>
						<time>2023-07-03T07:18:57Z</time>
					</trkpt>
					<trkpt lat="47.994050" lon="6.691950">
						<ele>701</ele>
						<time>2023-07-03T07:19:03Z</time>
					</trkpt>
					<trkpt lat="47.994160" lon="6.692030">
						<ele>699</ele>
						<time>2023-07-03T07:19:05Z</time>
					</trkpt>
					<trkpt lat="47.994270" lon="6.692040">
						<ele>697</ele>
						<time>2023-07-03T07:19:07Z</time>
					</trkpt>
					<trkpt lat="47.995160" lon="6.691680">
						<ele>688</ele>
						<time>2023-07-03T07:19:23Z</time>
					</trkpt>
					<trkpt lat="47.995390" lon="6.691520">
						<ele>682</ele>
						<time>2023-07-03T07:19:28Z</time>
					</trkpt>
					<trkpt lat="47.995540" lon="6.691350">
						<ele>679</ele>
						<time>2023-07-03T07:19:31Z</time>
					</trkpt>
					<trkpt lat="47.995680" lon="6.691140">
						<ele>676</ele>
						<time>2023-07-03T07:19:35Z</time>
					</trkpt>
					<trkpt lat="47.995780" lon="6.690860">
						<ele>676</ele>
						<time>2023-07-03T07:19:39Z</time>
					</trkpt>
					<trkpt lat="47.995900" lon="6.690340">
						<ele>672</ele>
						<time>2023-07-03T07:19:45Z</time>
					</trkpt>
					<trkpt lat="47.995970" lon="6.689950">
						<ele>669</ele>
						<time>2023-07-03T07:19:50Z</time>
					</trkpt>
					<trkpt lat="47.995980" lon="6.689590">
						<ele>668</ele>
						<time>2023-07-03T07:19:54Z</time>
					</trkpt>
					<trkpt lat="47.995890" lon="6.689150">
						<ele>669</ele>
						<time>2023-07-03T07:20:00Z</time>
					</trkpt>
					<trkpt lat="47.995860" lon="6.688850">
						<ele>671</ele>
						<time>2023-07-03T07:20:03Z</time>
					</trkpt>
					<trkpt lat="47.995920" lon="6.688460">
						<ele>670</ele>
						<time>2023-07-03T07:20:08Z</time>
					</trkpt>
					<trkpt lat="47.996020" lon="6.688080">
						<ele>670</ele>
						<time>2023-07-03T07:20:13Z</time>
					</trkpt>
					<trkpt lat="47.996190" lon="6.687810">
						<ele>667</ele>
						<time>2023-07-03T07:20:17Z</time>
					</trkpt>
					<trkpt lat="47.996840" lon="6.686960">
						<ele>655</ele>
						<time>2023-07-03T07:20:33Z</time>
					</trkpt>
					<trkpt lat="47.997560" lon="6.685710">
						<ele>653</ele>
						<time>2023-07-03T07:20:52Z</time>
					</trkpt>
					<trkpt lat="47.997790" lon="6.685440">
						<ele>654</ele>
						<time>2023-07-03T07:20:58Z</time>
					</trkpt>
					<trkpt lat="47.998040" lon="6.685240">
						<ele>653</ele>
						<time>2023-07-03T07:21:03Z</time>
					</trkpt>
					<trkpt lat="47.998210" lon="6.685170">
						<ele>652</ele>
						<time>2023-07-03T07:21:06Z</time>
					</trkpt>
					<trkpt lat="47.999190" lon="6.684820">
						<ele>645</ele>
						<time>2023-07-03T07:21:24Z</time>
					</trkpt>
					<trkpt lat="47.999560" lon="6.684650">
						<ele>641</ele>
						<time>2023-07-03T07:21:31Z</time>
					</trkpt>
					<trkpt lat="47.999650" lon="6.684550">
						<ele>640</ele>
						<time>2023-07-03T07:21:33Z</time>
					</trkpt>
					<trkpt lat="47.999860" lon="6.683840">
						<ele>643</ele>
						<time>2023-07-03T07:21:42Z</time>
					</trkpt>
					<trkpt lat="47.999980" lon="6.683590">
						<ele>642</ele>
						<time>2023-07-03T07:21:46Z</time>
					</trkpt>
					<trkpt lat="48.000080" lon="6.683490">
						<ele>641</ele>
						<time>2023-07-03T07:21:48Z</time>
					</trkpt>
					<trkpt lat="48.000350" lon="6.683330">
						<ele>637</ele>
						<time>2023-07-03T07:21:53Z</time>
					</trkpt>
					<trkpt lat="48.000830" lon="6.682890">
						<ele>634</ele>
						<time>2023-07-03T07:22:03Z</time>
					</trkpt>
					<trkpt lat="48.000900" lon="6.682860">
						<ele>633</ele>
						<time>2023-07-03T07:22:04Z</time>
					</trkpt>
					<trkpt lat="48.000940" lon="6.682920">
						<ele>631</ele>
						<time>2023-07-03T07:22:05Z</time>
					</trkpt>
					<trkpt lat="48.000940" lon="6.683050">
						<ele>629</ele>
						<time>2023-07-03T07:22:07Z</time>
					</trkpt>
					<trkpt lat="48.000870" lon="6.683160">
						<ele>629</ele>
						<time>2023-07-03T07:22:09Z</time>
					</trkpt>
					<trkpt lat="48.000690" lon="6.683350">
						<ele>630</ele>
						<time>2023-07-03T07:22:12Z</time>
					</trkpt>
					<trkpt lat="48.000420" lon="6.683950">
						<ele>629</ele>
						<time>2023-07-03T07:22:21Z</time>
					</trkpt>
					<trkpt lat="48.000360" lon="6.684460">
						<ele>625</ele>
						<time>2023-07-03T07:22:27Z</time>
					</trkpt>
					<trkpt lat="48.000280" lon="6.684790">
						<ele>623</ele>
						<time>2023-07-03T07:22:31Z</time>
					</trkpt>
					<trkpt lat="48.000280" lon="6.684950">
						<ele>621</ele>
						<time>2023-07-03T07:22:33Z</time>
					</trkpt>
					<trkpt lat="48.000350" lon="6.684960">
						<ele>619</ele>
						<time>2023-07-03T07:22:35Z</time>
					</trkpt>
					<trkpt lat="48.000440" lon="6.684900">
						<ele>618</ele>
						<time>2023-07-03T07:22:36Z</time>
					</trkpt>
					<trkpt lat="48.000670" lon="6.684480">
						<ele>617</ele>
						<time>2023-07-03T07:22:43Z</time>
					</trkpt>
					<trkpt lat="48.000780" lon="6.684330">
						<ele>616</ele>
						<time>2023-07-03T07:22:45Z</time>
					</trkpt>
					<trkpt lat="48.000910" lon="6.684210">
						<ele>615</ele>
						<time>2023-07-03T07:22:48Z</time>
					</trkpt>
					<trkpt lat="48.001060" lon="6.684110">
						<ele>612</ele>
						<time>2023-07-03T07:22:51Z</time>
					</trkpt>
					<trkpt lat="48.001120" lon="6.684130">
						<ele>611</ele>
						<time>2023-07-03T07:22:52Z</time>
					</trkpt>
					<trkpt lat="48.001180" lon="6.684210">
						<ele>608</ele>
						<time>2023-07-03T07:22:54Z</time>
					</trkpt>
					<trkpt lat="48.001250" lon="6.684410">
						<ele>605</ele>
						<time>2023-07-03T07:22:56Z</time>
					</trkpt>
					<trkpt lat="48.001260" lon="6.684700">
						<ele>601</ele>
						<time>2023-07-03T07:23:00Z</time>
					</trkpt>
					<trkpt lat="48.001150" lon="6.685270">
						<ele>597</ele>
						<time>2023-07-03T07:23:07Z</time>
					</trkpt>
					<trkpt lat="48.001150" lon="6.685400">
						<ele>595</ele>
						<time>2023-07-03T07:23:08Z</time>
					</trkpt>
					<trkpt lat="48.001170" lon="6.685490">
						<ele>593</ele>
						<time>2023-07-03T07:23:09Z</time>
					</trkpt>
					<trkpt lat="48.001300" lon="6.685710">
						<ele>589</ele>
						<time>2023-07-03T07:23:13Z</time>
					</trkpt>
					<trkpt lat="48.001700" lon="6.686770">
						<ele>578</ele>
						<time>2023-07-03T07:23:27Z</time>
					</trkpt>
					<trkpt lat="48.001860" lon="6.687030">
						<ele>573</ele>
						<time>2023-07-03T07:23:32Z</time>
					</trkpt>
					<trkpt lat="48.002030" lon="6.687180">
						<ele>571</ele>
						<time>2023-07-03T07:23:35Z</time>
					</trkpt>
					<trkpt lat="48.002230" lon="6.687220">
						<ele>571</ele>
						<time>2023-07-03T07:23:39Z</time>
					</trkpt>
					<trkpt lat="48.002850" lon="6.686990">
						<ele>566</ele>
						<time>2023-07-03T07:23:50Z</time>
					</trkpt>
					<trkpt lat="48.003210" lon="6.686890">
						<ele>560</ele>
						<time>2023-07-03T07:23:57Z</time>
					</trkpt>
					<trkpt lat="48.003530" lon="6.686940">
						<ele>554</ele>
						<time>2023-07-03T07:24:02Z</time>
					</trkpt>
					<trkpt lat="48.003840" lon="6.686720">
						<ele>551</ele>
						<time>2023-07-03T07:24:08Z</time>
					</trkpt>
					<trkpt lat="48.004060" lon="6.686190">
						<ele>549</ele>
						<time>2023-07-03T07:24:16Z</time>
					</trkpt>
					<trkpt lat="48.004150" lon="6.686060">
						<ele>548</ele>
						<time>2023-07-03T07:24:18Z</time>
					</trkpt>
					<trkpt lat="48.004330" lon="6.686050">
						<ele>552</ele>
						<time>2023-07-03T07:24:21Z</time>
					</trkpt>
					<trkpt lat="48.004300" lon="6.686290">
						<ele>550</ele>
						<time>2023-07-03T07:24:24Z</time>
					</trkpt>
					<trkpt lat="48.004380" lon="6.686350">
						<ele>552</ele>
						<time>2023-07-03T07:24:26Z</time>
					</trkpt>
					<trkpt lat="48.004510" lon="6.686540">
						<ele>554</ele>
						<time>2023-07-03T07:24:29Z</time>
					</trkpt>
					<trkpt lat="48.004790" lon="6.687600">
						<ele>555</ele>
						<time>2023-07-03T07:24:43Z</time>
					</trkpt>
					<trkpt lat="48.004930" lon="6.688290">
						<ele>551</ele>
						<time>2023-07-03T07:24:51Z</time>
					</trkpt>
					<trkpt lat="48.005560" lon="6.689390">
						<ele>555</ele>
						<time>2023-07-03T07:25:08Z</time>
					</trkpt>
					<trkpt lat="48.005790" lon="6.689950">
						<ele>553</ele>
						<time>2023-07-03T07:25:16Z</time>
					</trkpt>
					<trkpt lat="48.005970" lon="6.690710">
						<ele>549</ele>
						<time>2023-07-03T07:25:26Z</time>
					</trkpt>
					<trkpt lat="48.006220" lon="6.692080">
						<ele>541</ele>
						<time>2023-07-03T07:25:43Z</time>
					</trkpt>
					<trkpt lat="48.006400" lon="6.692940">
						<ele>535</ele>
						<time>2023-07-03T07:25:54Z</time>
					</trkpt>
					<trkpt lat="48.006790" lon="6.694370">
						<ele>515</ele>
						<time>2023-07-03T07:26:12Z</time>
					</trkpt>
					<trkpt lat="48.006980" lon="6.694750">
						<ele>512</ele>
						<time>2023-07-03T07:26:18Z</time>
					</trkpt>
					<trkpt lat="48.007170" lon="6.695050">
						<ele>509</ele>
						<time>2023-07-03T07:26:22Z</time>
					</trkpt>
					<trkpt lat="48.007580" lon="6.695050">
						<ele>517</ele>
						<time>2023-07-03T07:26:30Z</time>
					</trkpt>
					<trkpt lat="48.007970" lon="6.695160">
						<ele>524</ele>
						<time>2023-07-03T07:26:37Z</time>
					</trkpt>
					<trkpt lat="48.008410" lon="6.695530">
						<ele>521</ele>
						<time>2023-07-03T07:26:46Z</time>
					</trkpt>
					<trkpt lat="48.008950" lon="6.695860">
						<ele>513</ele>
						<time>2023-07-03T07:26:56Z</time>
					</trkpt>
					<trkpt lat="48.009670" lon="6.696110">
						<ele>501</ele>
						<time>2023-07-03T07:27:09Z</time>
					</trkpt>
					<trkpt lat="48.009880" lon="6.696130">
						<ele>499</ele>
						<time>2023-07-03T07:27:13Z</time>
					</trkpt>
					<trkpt lat="48.010070" lon="6.695920">
						<ele>503</ele>
						<time>2023-07-03T07:27:17Z</time>
					</trkpt>
					<trkpt lat="48.010420" lon="6.695310">
						<ele>507</ele>
						<time>2023-07-03T07:27:27Z</time>
					</trkpt>
					<trkpt lat="48.010720" lon="6.694840">
						<ele>503</ele>
						<time>2023-07-03T07:27:35Z</time>
					</trkpt>
					<trkpt lat="48.010790" lon="6.694690">
						<ele>501</ele>
						<time>2023-07-03T07:27:37Z</time>
					</trkpt>
					<trkpt lat="48.010840" lon="6.694690">
						<ele>499</ele>
						<time>2023-07-03T07:27:38Z</time>
					</trkpt>
					<trkpt lat="48.010980" lon="6.694570">
						<ele>494</ele>
						<time>2023-07-03T07:27:41Z</time>
					</trkpt>
					<trkpt lat="48.011100" lon="6.694180">
						<ele>494</ele>
						<time>2023-07-03T07:27:46Z</time>
					</trkpt>
					<trkpt lat="48.011170" lon="6.693810">
						<ele>493</ele>
						<time>2023-07-03T07:27:50Z</time>
					</trkpt>
					<trkpt lat="48.011160" lon="6.693300">
						<ele>494</ele>
						<time>2023-07-03T07:27:56Z</time>
					</trkpt>
					<trkpt lat="48.011190" lon="6.692270">
						<ele>495</ele>
						<time>2023-07-03T07:28:09Z</time>
					</trkpt>
					<trkpt lat="48.011250" lon="6.691910">
						<ele>495</ele>
						<time>2023-07-03T07:28:13Z</time>
					</trkpt>
					<trkpt lat="48.011350" lon="6.691750">
						<ele>492</ele>
						<time>2023-07-03T07:28:16Z</time>
					</trkpt>
					<trkpt lat="48.011570" lon="6.691740">
						<ele>484</ele>
						<time>2023-07-03T07:28:19Z</time>
					</trkpt>
					<trkpt lat="48.012010" lon="6.691640">
						<ele>478</ele>
						<time>2023-07-03T07:28:27Z</time>
					</trkpt>
					<trkpt lat="48.012360" lon="6.691440">
						<ele>479</ele>
						<time>2023-07-03T07:28:34Z</time>
					</trkpt>
					<trkpt lat="48.012670" lon="6.691120">
						<ele>478</ele>
						<time>2023-07-03T07:28:41Z</time>
					</trkpt>
					<trkpt lat="48.012860" lon="6.690840">
						<ele>477</ele>
						<time>2023-07-03T07:28:46Z</time>
					</trkpt>
					<trkpt lat="48.013280" lon="6.690070">
						<ele>470</ele>
						<time>2023-07-03T07:28:57Z</time>
					</trkpt>
					<trkpt lat="48.013400" lon="6.689960">
						<ele>468</ele>
						<time>2023-07-03T07:29:00Z</time>
					</trkpt>
					<trkpt lat="48.013500" lon="6.689970">
						<ele>466</ele>
						<time>2023-07-03T07:29:02Z</time>
					</trkpt>
					<trkpt lat="48.013560" lon="6.690060">
						<ele>464</ele>
						<time>2023-07-03T07:29:03Z</time>
					</trkpt>
					<trkpt lat="48.013550" lon="6.690290">
						<ele>462</ele>
						<time>2023-07-03T07:29:06Z</time>
					</trkpt>
					<trkpt lat="48.013320" lon="6.690550">
						<ele>465</ele>
						<time>2023-07-03T07:29:11Z</time>
					</trkpt>
					<trkpt lat="48.013260" lon="6.690680">
						<ele>466</ele>
						<time>2023-07-03T07:29:13Z</time>
					</trkpt>
					<trkpt lat="48.013190" lon="6.691010">
						<ele>463</ele>
						<time>2023-07-03T07:29:17Z</time>
					</trkpt>
					<trkpt lat="48.013090" lon="6.691320">
						<ele>459</ele>
						<time>2023-07-03T07:29:21Z</time>
					</trkpt>
					<trkpt lat="48.012300" lon="6.692830">
						<ele>460</ele>
						<time>2023-07-03T07:29:44Z</time>
					</trkpt>
					<trkpt lat="48.012260" lon="6.693070">
						<ele>459</ele>
						<time>2023-07-03T07:29:47Z</time>
					</trkpt>
					<trkpt lat="48.012270" lon="6.694180">
						<ele>451</ele>
						<time>2023-07-03T07:30:00Z</time>
					</trkpt>
					<trkpt lat="48.012150" lon="6.694580">
						<ele>450</ele>
						<time>2023-07-03T07:30:05Z</time>
					</trkpt>
					<trkpt lat="48.011850" lon="6.695210">
						<ele>451</ele>
						<time>2023-07-03T07:30:15Z</time>
					</trkpt>
					<trkpt lat="48.011720" lon="6.695400">
						<ele>451</ele>
						<time>2023-07-03T07:30:18Z</time>
					</trkpt>
					<trkpt lat="48.011280" lon="6.695820">
						<ele>459</ele>
						<time>2023-07-03T07:30:27Z</time>
					</trkpt>
					<trkpt lat="48.011110" lon="6.696520">
						<ele>452</ele>
						<time>2023-07-03T07:30:36Z</time>
					</trkpt>
					<trkpt lat="48.011010" lon="6.696560">
						<ele>455</ele>
						<time>2023-07-03T07:30:38Z</time>
					</trkpt>
					<trkpt lat="48.010880" lon="6.696700">
						<ele>457</ele>
						<time>2023-07-03T07:30:41Z</time>
					</trkpt>
					<trkpt lat="48.010800" lon="6.696920">
						<ele>456</ele>
						<time>2023-07-03T07:30:44Z</time>
					</trkpt>
					<trkpt lat="48.010830" lon="6.697070">
						<ele>453</ele>
						<time>2023-07-03T07:30:45Z</time>
					</trkpt>
					<trkpt lat="48.010620" lon="6.697420">
						<ele>451</ele>
						<time>2023-07-03T07:30:51Z</time>
					</trkpt>
					<trkpt lat="48.010490" lon="6.697560">
						<ele>450</ele>
						<time>2023-07-03T07:30:54Z</time>
					</trkpt>
					<trkpt lat="48.010290" lon="6.697720">
						<ele>450</ele>
						<time>2023-07-03T07:30:58Z</time>
					</trkpt>
					<trkpt lat="48.010000" lon="6.697810">
						<ele>451</ele>
						<time>2023-07-03T07:31:03Z</time>
					</trkpt>
					<trkpt lat="48.009740" lon="6.697920">
						<ele>448</ele>
						<time>2023-07-03T07:31:08Z</time>
					</trkpt>
					<trkpt lat="48.009520" lon="6.698170">
						<ele>440</ele>
						<time>2023-07-03T07:31:13Z</time>
					</trkpt>
					<trkpt lat="48.009270" lon="6.698270">
						<ele>436</ele>
						<time>2023-07-03T07:31:18Z</time>
					</trkpt>
					<trkpt lat="48.008990" lon="6.698320">
						<ele>434</ele>
						<time>2023-07-03T07:31:23Z</time>
					</trkpt>
					<trkpt lat="48.008820" lon="6.698250">
						<ele>436</ele>
						<time>2023-07-03T07:31:26Z</time>
					</trkpt>
					<trkpt lat="48.008420" lon="6.698200">
						<ele>437</ele>
						<time>2023-07-03T07:31:33Z</time>
					</trkpt>
					<trkpt lat="48.008280" lon="6.698270">
						<ele>434</ele>
						<time>2023-07-03T07:31:35Z</time>
					</trkpt>
					<trkpt lat="48.008060" lon="6.698440">
						<ele>431</ele>
						<time>2023-07-03T07:31:40Z</time>
					</trkpt>
					<trkpt lat="48.007810" lon="6.698510">
						<ele>430</ele>
						<time>2023-07-03T07:31:44Z</time>
					</trkpt>
					<trkpt lat="48.007420" lon="6.698540">
						<ele>431</ele>
						<time>2023-07-03T07:31:51Z</time>
					</trkpt>
					<trkpt lat="48.007220" lon="6.698600">
						<ele>430</ele>
						<time>2023-07-03T07:31:55Z</time>
					</trkpt>
					<trkpt lat="48.007050" lon="6.698680">
						<ele>430</ele>
						<time>2023-07-03T07:31:58Z</time>
					</trkpt>
					<trkpt lat="48.007040" lon="6.698810">
						<ele>429</ele>
						<time>2023-07-03T07:32:00Z</time>
					</trkpt>
					<trkpt lat="48.006890" lon="6.699110">
						<ele>426</ele>
						<time>2023-07-03T07:32:04Z</time>
					</trkpt>
					<trkpt lat="48.006840" lon="6.699300">
						<ele>425</ele>
						<time>2023-07-03T07:32:07Z</time>
					</trkpt>
					<trkpt lat="48.006820" lon="6.699430">
						<ele>424</ele>
						<time>2023-07-03T07:32:08Z</time>
					</trkpt>
					<trkpt lat="48.006790" lon="6.699930">
						<ele>419</ele>
						<time>2023-07-03T07:32:14Z</time>
					</trkpt>
					<trkpt lat="48.006740" lon="6.700090">
						<ele>418</ele>
						<time>2023-07-03T07:32:16Z</time>
					</trkpt>
					<trkpt lat="48.006360" lon="6.700630">
						<ele>416</ele>
						<time>2023-07-03T07:32:26Z</time>
					</trkpt>
					<trkpt lat="48.005690" lon="6.701210">
						<ele>415</ele>
						<time>2023-07-03T07:32:39Z</time>
					</trkpt>
					<trkpt lat="48.005650" lon="6.701300">
						<ele>415</ele>
						<time>2023-07-03T07:32:41Z</time>
					</trkpt>
					<trkpt lat="48.005630" lon="6.701390">
						<ele>414</ele>
						<time>2023-07-03T07:32:42Z</time>
					</trkpt>
					<trkpt lat="48.005640" lon="6.701500">
						<ele>413</ele>
						<time>2023-07-03T07:32:43Z</time>
					</trkpt>
					<trkpt lat="48.005940" lon="6.703180">
						<ele>406</ele>
						<time>2023-07-03T07:33:04Z</time>
					</trkpt>
					<trkpt lat="48.006020" lon="6.703620">
						<ele>405</ele>
						<time>2023-07-03T07:33:09Z</time>
					</trkpt>
					<trkpt lat="48.006420" lon="6.703660">
						<ele>404</ele>
						<time>2023-07-03T07:33:16Z</time>
					</trkpt>
					<trkpt lat="48.006440" lon="6.703850">
						<ele>404</ele>
						<time>2023-07-03T07:33:19Z</time>
					</trkpt>
					<trkpt lat="48.006620" lon="6.704660">
						<ele>404</ele>
						<time>2023-07-03T07:33:29Z</time>
					</trkpt>
					<trkpt lat="48.006770" lon="6.706430">
						<ele>403</ele>
						<time>2023-07-03T07:33:50Z</time>
					</trkpt>
					<trkpt lat="48.006790" lon="6.706630">
						<ele>402</ele>
						<time>2023-07-03T07:33:52Z</time>
					</trkpt>
					<trkpt lat="48.006820" lon="6.707050">
						<ele>402</ele>
						<time>2023-07-03T07:33:57Z</time>
					</trkpt>
					<trkpt lat="48.006860" lon="6.707540">
						<ele>401</ele>
						<time>2023-07-03T07:34:03Z</time>
					</trkpt>
					<trkpt lat="48.006910" lon="6.708200">
						<ele>402</ele>
						<time>2023-07-03T07:34:11Z</time>
					</trkpt>
					<trkpt lat="48.006920" lon="6.708370">
						<ele>402</ele>
						<time>2023-07-03T07:34:13Z</time>
					</trkpt>
					<trkpt lat="48.006950" lon="6.708730">
						<ele>402</ele>
						<time>2023-07-03T07:34:18Z</time>
					</trkpt>
					<trkpt lat="48.006970" lon="6.709060">
						<ele>402</ele>
						<time>2023-07-03T07:34:22Z</time>
					</trkpt>
					<trkpt lat="48.007020" lon="6.709680">
						<ele>402</ele>
						<time>2023-07-03T07:34:29Z</time>
					</trkpt>
					<trkpt lat="48.007030" lon="6.709810">
						<ele>402</ele>
						<time>2023-07-03T07:34:31Z</time>
					</trkpt>
					<trkpt lat="48.007110" lon="6.710820">
						<ele>402</ele>
						<time>2023-07-03T07:34:43Z</time>
					</trkpt>
					<trkpt lat="48.007090" lon="6.710940">
						<ele>402</ele>
						<time>2023-07-03T07:34:44Z</time>
					</trkpt>
					<trkpt lat="48.007190" lon="6.710900">
						<ele>402</ele>
						<time>2023-07-03T07:34:46Z</time>
					</trkpt>
					<trkpt lat="48.007670" lon="6.710850">
						<ele>402</ele>
						<time>2023-07-03T07:34:55Z</time>
					</trkpt>
					<trkpt lat="48.008350" lon="6.710750">
						<ele>401</ele>
						<time>2023-07-03T07:35:07Z</time>
					</trkpt>
					<trkpt lat="48.008490" lon="6.710710">
						<ele>401</ele>
						<time>2023-07-03T07:35:09Z</time>
					</trkpt>
					<trkpt lat="48.009980" lon="6.710340">
						<ele>399</ele>
						<time>2023-07-03T07:35:36Z</time>
					</trkpt>
					<trkpt lat="48.010760" lon="6.710160">
						<ele>399</ele>
						<time>2023-07-03T07:35:50Z</time>
					</trkpt>
					<trkpt lat="48.010810" lon="6.710200">
						<ele>399</ele>
						<time>2023-07-03T07:35:51Z</time>
					</trkpt>
					<trkpt lat="48.010830" lon="6.710250">
						<ele>399</ele>
						<time>2023-07-03T07:35:52Z</time>
					</trkpt>
					<trkpt lat="48.010850" lon="6.710440">
						<ele>400</ele>
						<time>2023-07-03T07:35:54Z</time>
					</trkpt>
					<trkpt lat="48.010840" lon="6.710620">
						<ele>400</ele>
						<time>2023-07-03T07:35:56Z</time>
					</trkpt>
					<trkpt lat="48.010820" lon="6.710580">
						<ele>400</ele>
						<time>2023-07-03T07:35:57Z</time>
					</trkpt>
					<trkpt lat="48.010810" lon="6.710460">
						<ele>400</ele>
						<time>2023-07-03T07:35:58Z</time>
					</trkpt>
					<trkpt lat="48.010680" lon="6.710470">
						<ele>399</ele>
						<time>2023-07-03T07:36:01Z</time>
					</trkpt>
					<trkpt lat="48.010820" lon="6.710420">
						<ele>399</ele>
						<time>2023-07-03T07:36:03Z</time>
					</trkpt>
					<trkpt lat="48.010950" lon="6.710380">
						<ele>399</ele>
						<time>2023-07-03T07:36:06Z</time>
					</trkpt>
					<trkpt lat="48.011200" lon="6.710320">
						<ele>399</ele>
						<time>2023-07-03T07:36:10Z</time>
					</trkpt>
					<trkpt lat="48.011260" lon="6.710350">
						<ele>399</ele>
						<time>2023-07-03T07:36:11Z</time>
					</trkpt>
					<trkpt lat="48.011430" lon="6.710510">
						<ele>399</ele>
						<time>2023-07-03T07:36:15Z</time>
					</trkpt>
					<trkpt lat="48.011450" lon="6.710550">
						<ele>399</ele>
						<time>2023-07-03T07:36:15Z</time>
					</trkpt>
					<trkpt lat="48.012080" lon="6.710260">
						<ele>398</ele>
						<time>2023-07-03T07:36:27Z</time>
					</trkpt>
					<trkpt lat="48.012670" lon="6.710160">
						<ele>398</ele>
						<time>2023-07-03T07:36:38Z</time>
					</trkpt>
					<trkpt lat="48.013060" lon="6.709990">
						<ele>399</ele>
						<time>2023-07-03T07:36:45Z</time>
					</trkpt>
					<trkpt lat="48.013550" lon="6.709940">
						<ele>400</ele>
						<time>2023-07-03T07:36:54Z</time>
					</trkpt>
					<trkpt lat="48.013580" lon="6.709920">
						<ele>400</ele>
						<time>2023-07-03T07:36:54Z</time>
					</trkpt>
					<trkpt lat="48.013640" lon="6.709880">
						<ele>399</ele>
						<time>2023-07-03T07:36:55Z</time>
					</trkpt>
					<trkpt lat="48.013740" lon="6.709700">
						<ele>399</ele>
						<time>2023-07-03T07:36:58Z</time>
					</trkpt>
					<trkpt lat="48.013830" lon="6.709490">
						<ele>399</ele>
						<time>2023-07-03T07:37:01Z</time>
					</trkpt>
					<trkpt lat="48.013900" lon="6.709380">
						<ele>399</ele>
						<time>2023-07-03T07:37:03Z</time>
					</trkpt>
					<trkpt lat="48.014010" lon="6.709290">
						<ele>398</ele>
						<time>2023-07-03T07:37:05Z</time>
					</trkpt>
					<trkpt lat="48.014110" lon="6.709270">
						<ele>398</ele>
						<time>2023-07-03T07:37:07Z</time>
					</trkpt>
					<trkpt lat="48.014640" lon="6.709030">
						<ele>398</ele>
						<time>2023-07-03T07:37:17Z</time>
					</trkpt>
					<trkpt lat="48.014560" lon="6.709220">
						<ele>398</ele>
						<time>2023-07-03T07:37:19Z</time>
					</trkpt>
					<trkpt lat="48.014300" lon="6.709690">
						<ele>398</ele>
						<time>2023-07-03T07:37:27Z</time>
					</trkpt>
					<trkpt lat="48.014170" lon="6.710250">
						<ele>399</ele>
						<time>2023-07-03T07:37:34Z</time>
					</trkpt>
					<trkpt lat="48.014130" lon="6.710900">
						<ele>399</ele>
						<time>2023-07-03T07:37:42Z</time>
					</trkpt>
					<trkpt lat="48.013910" lon="6.712220">
						<ele>400</ele>
						<time>2023-07-03T07:37:58Z</time>
					</trkpt>
					<trkpt lat="48.013920" lon="6.712420">
						<ele>400</ele>
						<time>2023-07-03T07:38:00Z</time>
					</trkpt>
					<trkpt lat="48.014060" lon="6.712850">
						<ele>401</ele>
						<time>2023-07-03T07:38:06Z</time>
					</trkpt>
					<trkpt lat="48.014280" lon="6.713630">
						<ele>401</ele>
						<time>2023-07-03T07:38:16Z</time>
					</trkpt>
					<trkpt lat="48.016060" lon="6.711950">
						<ele>404</ele>
						<time>2023-07-03T07:38:53Z</time>
					</trkpt>
					<trkpt lat="48.016180" lon="6.711810">
						<ele>403</ele>
						<time>2023-07-03T07:38:56Z</time>
					</trkpt>
					<trkpt lat="48.016360" lon="6.711550">
						<ele>403</ele>
						<time>2023-07-03T07:39:01Z</time>
					</trkpt>
					<trkpt lat="48.016660" lon="6.710990">
						<ele>402</ele>
						<time>2023-07-03T07:39:09Z</time>
					</trkpt>
					<trkpt lat="48.016830" lon="6.710790">
						<ele>402</ele>
						<time>2023-07-03T07:39:13Z</time>
					</trkpt>
					<trkpt lat="48.016950" lon="6.710690">
						<ele>402</ele>
						<time>2023-07-03T07:39:15Z</time>
					</trkpt>
					<trkpt lat="48.017180" lon="6.710560">
						<ele>403</ele>
						<time>2023-07-03T07:39:20Z</time>
					</trkpt>
					<trkpt lat="48.017380" lon="6.710520">
						<ele>404</ele>
						<time>2023-07-03T07:39:23Z</time>
					</trkpt>
					<trkpt lat="48.017540" lon="6.710510">
						<ele>405</ele>
						<time>2023-07-03T07:39:26Z</time>
					</trkpt>
					<trkpt lat="48.017730" lon="6.710540">
						<ele>405</ele>
						<time>2023-07-03T07:39:30Z</time>
					</trkpt>
					<trkpt lat="48.018000" lon="6.710670">
						<ele>406</ele>
						<time>2023-07-03T07:39:35Z</time>
					</trkpt>
					<trkpt lat="48.018450" lon="6.710940">
						<ele>406</ele>
						<time>2023-07-03T07:39:43Z</time>
					</trkpt>
					<trkpt lat="48.018750" lon="6.711060">
						<ele>404</ele>
						<time>2023-07-03T07:39:49Z</time>
					</trkpt>
					<trkpt lat="48.018910" lon="6.711120">
						<ele>404</ele>
						<time>2023-07-03T07:39:52Z</time>
					</trkpt>
					<trkpt lat="48.019290" lon="6.711170">
						<ele>402</ele>
						<time>2023-07-03T07:39:58Z</time>
					</trkpt>
					<trkpt lat="48.020130" lon="6.711230">
						<ele>401</ele>
						<time>2023-07-03T07:40:13Z</time>
					</trkpt>
					<trkpt lat="48.020270" lon="6.711200">
						<ele>401</ele>
						<time>2023-07-03T07:40:16Z</time>
					</trkpt>
					<trkpt lat="48.020490" lon="6.711150">
						<ele>401</ele>
						<time>2023-07-03T07:40:20Z</time>
					</trkpt>
					<trkpt lat="48.020770" lon="6.710970">
						<ele>401</ele>
						<time>2023-07-03T07:40:25Z</time>
					</trkpt>
					<trkpt lat="48.020940" lon="6.710840">
						<ele>401</ele>
						<time>2023-07-03T07:40:29Z</time>
					</trkpt>
					<trkpt lat="48.021120" lon="6.710610">
						<ele>402</ele>
						<time>2023-07-03T07:40:33Z</time>
					</trkpt>
					<trkpt lat="48.021190" lon="6.710720">
						<ele>402</ele>
						<time>2023-07-03T07:40:35Z</time>
					</trkpt>
					<trkpt lat="48.021710" lon="6.710830">
						<ele>403</ele>
						<time>2023-07-03T07:40:44Z</time>
					</trkpt>
					<trkpt lat="48.021910" lon="6.710840">
						<ele>404</ele>
						<time>2023-07-03T07:40:48Z</time>
					</trkpt>
					<trkpt lat="48.022030" lon="6.710810">
						<ele>404</ele>
						<time>2023-07-03T07:40:50Z</time>
					</trkpt>
					<trkpt lat="48.022170" lon="6.710730">
						<ele>405</ele>
						<time>2023-07-03T07:40:52Z</time>
					</trkpt>
					<trkpt lat="48.022460" lon="6.710480">
						<ele>405</ele>
						<time>2023-07-03T07:40:58Z</time>
					</trkpt>
					<trkpt lat="48.022850" lon="6.709980">
						<ele>408</ele>
						<time>2023-07-03T07:41:08Z</time>
					</trkpt>
					<trkpt lat="48.022930" lon="6.709930">
						<ele>408</ele>
						<time>2023-07-03T07:41:09Z</time>
					</trkpt>
					<trkpt lat="48.023980" lon="6.709890">
						<ele>412</ele>
						<time>2023-07-03T07:41:28Z</time>
					</trkpt>
					<trkpt lat="48.024250" lon="6.709830">
						<ele>413</ele>
						<time>2023-07-03T07:41:33Z</time>
					</trkpt>
					<trkpt lat="48.024390" lon="6.709710">
						<ele>414</ele>
						<time>2023-07-03T07:41:36Z</time>
					</trkpt>
					<trkpt lat="48.024710" lon="6.709190">
						<ele>416</ele>
						<time>2023-07-03T07:41:44Z</time>
					</trkpt>
					<trkpt lat="48.024790" lon="6.709140">
						<ele>417</ele>
						<time>2023-07-03T07:41:46Z</time>
					</trkpt>
					<trkpt lat="48.025160" lon="6.709110">
						<ele>422</ele>
						<time>2023-07-03T07:41:52Z</time>
					</trkpt>
					<trkpt lat="48.025280" lon="6.709050">
						<ele>423</ele>
						<time>2023-07-03T07:41:54Z</time>
					</trkpt>
					<trkpt lat="48.025390" lon="6.708760">
						<ele>424</ele>
						<time>2023-07-03T07:41:58Z</time>
					</trkpt>
					<trkpt lat="48.025580" lon="6.707970">
						<ele>427</ele>
						<time>2023-07-03T07:42:08Z</time>
					</trkpt>
					<trkpt lat="48.025720" lon="6.707900">
						<ele>430</ele>
						<time>2023-07-03T07:42:11Z</time>
					</trkpt>
					<trkpt lat="48.025740" lon="6.707930">
						<ele>430</ele>
						<time>2023-07-03T07:42:11Z</time>
					</trkpt>
					<trkpt lat="48.025830" lon="6.707820">
						<ele>432</ele>
						<time>2023-07-03T07:42:14Z</time>
					</trkpt>
					<trkpt lat="48.026170" lon="6.707400">
						<ele>435</ele>
						<time>2023-07-03T07:42:21Z</time>
					</trkpt>
					<trkpt lat="48.026280" lon="6.707230">
						<ele>436</ele>
						<time>2023-07-03T07:42:24Z</time>
					</trkpt>
					<trkpt lat="48.026440" lon="6.707060">
						<ele>437</ele>
						<time>2023-07-03T07:42:28Z</time>
					</trkpt>
					<trkpt lat="48.026780" lon="6.706770">
						<ele>441</ele>
						<time>2023-07-03T07:42:35Z</time>
					</trkpt>
					<trkpt lat="48.026960" lon="6.706700">
						<ele>442</ele>
						<time>2023-07-03T07:42:38Z</time>
					</trkpt>
					<trkpt lat="48.027270" lon="6.706700">
						<ele>446</ele>
						<time>2023-07-03T07:42:43Z</time>
					</trkpt>
					<trkpt lat="48.027360" lon="6.706530">
						<ele>445</ele>
						<time>2023-07-03T07:42:46Z</time>
					</trkpt>
					<trkpt lat="48.027450" lon="6.706280">
						<ele>445</ele>
						<time>2023-07-03T07:42:49Z</time>
					</trkpt>
					<trkpt lat="48.027640" lon="6.705620">
						<ele>445</ele>
						<time>2023-07-03T07:42:58Z</time>
					</trkpt>
					<trkpt lat="48.027710" lon="6.705150">
						<ele>446</ele>
						<time>2023-07-03T07:43:04Z</time>
					</trkpt>
					<trkpt lat="48.027810" lon="6.704830">
						<ele>448</ele>
						<time>2023-07-03T07:43:08Z</time>
					</trkpt>
					<trkpt lat="48.027930" lon="6.704320">
						<ele>450</ele>
						<time>2023-07-03T07:43:14Z</time>
					</trkpt>
					<trkpt lat="48.027960" lon="6.704120">
						<ele>450</ele>
						<time>2023-07-03T07:43:17Z</time>
					</trkpt>
					<trkpt lat="48.028330" lon="6.702870">
						<ele>457</ele>
						<time>2023-07-03T07:43:33Z</time>
					</trkpt>
					<trkpt lat="48.028500" lon="6.701850">
						<ele>450</ele>
						<time>2023-07-03T07:43:46Z</time>
					</trkpt>
					<trkpt lat="48.028750" lon="6.701160">
						<ele>452</ele>
						<time>2023-07-03T07:43:55Z</time>
					</trkpt>
					<trkpt lat="48.028830" lon="6.701030">
						<ele>454</ele>
						<time>2023-07-03T07:43:57Z</time>
					</trkpt>
					<trkpt lat="48.028980" lon="6.700830">
						<ele>457</ele>
						<time>2023-07-03T07:44:01Z</time>
					</trkpt>
					<trkpt lat="48.029060" lon="6.700680">
						<ele>458</ele>
						<time>2023-07-03T07:44:03Z</time>
					</trkpt>
					<trkpt lat="48.029220" lon="6.700120">
						<ele>458</ele>
						<time>2023-07-03T07:44:10Z</time>
					</trkpt>
					<trkpt lat="48.029370" lon="6.699620">
						<ele>458</ele>
						<time>2023-07-03T07:44:17Z</time>
					</trkpt>
					<trkpt lat="48.029490" lon="6.699350">
						<ele>459</ele>
						<time>2023-07-03T07:44:20Z</time>
					</trkpt>
					<trkpt lat="48.029620" lon="6.699010">
						<ele>459</ele>
						<time>2023-07-03T07:44:25Z</time>
					</trkpt>
					<trkpt lat="48.029720" lon="6.698550">
						<ele>457</ele>
						<time>2023-07-03T07:44:31Z</time>
					</trkpt>
					<trkpt lat="48.030000" lon="6.697710">
						<ele>452</ele>
						<time>2023-07-03T07:44:42Z</time>
					</trkpt>
					<trkpt lat="48.030050" lon="6.697540">
						<ele>452</ele>
						<time>2023-07-03T07:44:44Z</time>
					</trkpt>
					<trkpt lat="48.030060" lon="6.697490">
						<ele>451</ele>
						<time>2023-07-03T07:44:45Z</time>
					</trkpt>
					<trkpt lat="48.030020" lon="6.697390">
						<ele>451</ele>
						<time>2023-07-03T07:44:46Z</time>
					</trkpt>
					<trkpt lat="48.029820" lon="6.697160">
						<ele>453</ele>
						<time>2023-07-03T07:44:51Z</time>
					</trkpt>
					<trkpt lat="48.029950" lon="6.696760">
						<ele>455</ele>
						<time>2023-07-03T07:44:56Z</time>
					</trkpt>
					<trkpt lat="48.030120" lon="6.696320">
						<ele>462</ele>
						<time>2023-07-03T07:45:02Z</time>
					</trkpt>
					<trkpt lat="48.030280" lon="6.696000">
						<ele>466</ele>
						<time>2023-07-03T07:45:07Z</time>
					</trkpt>
					<trkpt lat="48.030440" lon="6.695780">
						<ele>465</ele>
						<time>2023-07-03T07:45:11Z</time>
					</trkpt>
					<trkpt lat="48.030760" lon="6.695290">
						<ele>465</ele>
						<time>2023-07-03T07:45:19Z</time>
					</trkpt>
					<trkpt lat="48.030950" lon="6.694870">
						<ele>470</ele>
						<time>2023-07-03T07:45:25Z</time>
					</trkpt>
					<trkpt lat="48.031010" lon="6.694770">
						<ele>471</ele>
						<time>2023-07-03T07:45:26Z</time>
					</trkpt>
					<trkpt lat="48.031240" lon="6.694570">
						<ele>473</ele>
						<time>2023-07-03T07:45:31Z</time>
					</trkpt>
					<trkpt lat="48.031340" lon="6.694540">
						<ele>473</ele>
						<time>2023-07-03T07:45:33Z</time>
					</trkpt>
					<trkpt lat="48.031430" lon="6.694370">
						<ele>473</ele>
						<time>2023-07-03T07:45:36Z</time>
					</trkpt>
					<trkpt lat="48.031540" lon="6.694050">
						<ele>472</ele>
						<time>2023-07-03T07:45:40Z</time>
					</trkpt>
					<trkpt lat="48.031700" lon="6.693440">
						<ele>472</ele>
						<time>2023-07-03T07:45:48Z</time>
					</trkpt>
					<trkpt lat="48.032220" lon="6.692360">
						<ele>469</ele>
						<time>2023-07-03T07:46:04Z</time>
					</trkpt>
					<trkpt lat="48.032470" lon="6.691670">
						<ele>463</ele>
						<time>2023-07-03T07:46:13Z</time>
					</trkpt>
					<trkpt lat="48.032670" lon="6.691230">
						<ele>462</ele>
						<time>2023-07-03T07:46:19Z</time>
					</trkpt>
					<trkpt lat="48.032770" lon="6.690980">
						<ele>461</ele>
						<time>2023-07-03T07:46:23Z</time>
					</trkpt>
					<trkpt lat="48.032910" lon="6.690510">
						<ele>458</ele>
						<time>2023-07-03T07:46:29Z</time>
					</trkpt>
					<trkpt lat="48.033240" lon="6.689750">
						<ele>454</ele>
						<time>2023-07-03T07:46:40Z</time>
					</trkpt>
					<trkpt lat="48.033510" lon="6.689230">
						<ele>454</ele>
						<time>2023-07-03T07:46:47Z</time>
					</trkpt>
					<trkpt lat="48.033710" lon="6.688810">
						<ele>456</ele>
						<time>2023-07-03T07:46:54Z</time>
					</trkpt>
					<trkpt lat="48.034340" lon="6.687020">
						<ele>455</ele>
						<time>2023-07-03T07:47:18Z</time>
					</trkpt>
					<trkpt lat="48.034590" lon="6.686480">
						<ele>456</ele>
						<time>2023-07-03T07:47:25Z</time>
					</trkpt>
					<trkpt lat="48.034760" lon="6.685990">
						<ele>456</ele>
						<time>2023-07-03T07:47:32Z</time>
					</trkpt>
					<trkpt lat="48.035010" lon="6.685560">
						<ele>455</ele>
						<time>2023-07-03T07:47:39Z</time>
					</trkpt>
					<trkpt lat="48.035320" lon="6.684830">
						<ele>459</ele>
						<time>2023-07-03T07:47:49Z</time>
					</trkpt>
					<trkpt lat="48.035440" lon="6.684610">
						<ele>457</ele>
						<time>2023-07-03T07:47:52Z</time>
					</trkpt>
					<trkpt lat="48.035650" lon="6.684350">
						<ele>453</ele>
						<time>2023-07-03T07:47:57Z</time>
					</trkpt>
					<trkpt lat="48.035800" lon="6.684010">
						<ele>448</ele>
						<time>2023-07-03T07:48:02Z</time>
					</trkpt>
					<trkpt lat="48.035960" lon="6.683760">
						<ele>445</ele>
						<time>2023-07-03T07:48:06Z</time>
					</trkpt>
					<trkpt lat="48.036100" lon="6.683600">
						<ele>444</ele>
						<time>2023-07-03T07:48:09Z</time>
					</trkpt>
					<trkpt lat="48.036400" lon="6.683100">
						<ele>440</ele>
						<time>2023-07-03T07:48:17Z</time>
					</trkpt>
					<trkpt lat="48.036430" lon="6.683010">
						<ele>439</ele>
						<time>2023-07-03T07:48:19Z</time>
					</trkpt>
					<trkpt lat="48.036460" lon="6.683030">
						<ele>439</ele>
						<time>2023-07-03T07:48:19Z</time>
					</trkpt>
					<trkpt lat="48.036510" lon="6.683010">
						<ele>439</ele>
						<time>2023-07-03T07:48:20Z</time>
					</trkpt>
					<trkpt lat="48.036770" lon="6.682650">
						<ele>436</ele>
						<time>2023-07-03T07:48:26Z</time>
					</trkpt>
					<trkpt lat="48.036880" lon="6.682540">
						<ele>435</ele>
						<time>2023-07-03T07:48:29Z</time>
					</trkpt>
					<trkpt lat="48.037010" lon="6.682510">
						<ele>435</ele>
						<time>2023-07-03T07:48:31Z</time>
					</trkpt>
					<trkpt lat="48.037420" lon="6.682470">
						<ele>435</ele>
						<time>2023-07-03T07:48:38Z</time>
					</trkpt>
					<trkpt lat="48.037570" lon="6.682410">
						<ele>434</ele>
						<time>2023-07-03T07:48:41Z</time>
					</trkpt>
					<trkpt lat="48.037800" lon="6.682260">
						<ele>433</ele>
						<time>2023-07-03T07:48:46Z</time>
					</trkpt>
					<trkpt lat="48.038010" lon="6.682010">
						<ele>432</ele>
						<time>2023-07-03T07:48:50Z</time>
					</trkpt>
					<trkpt lat="48.038150" lon="6.681750">
						<ele>431</ele>
						<time>2023-07-03T07:48:54Z</time>
					</trkpt>
					<trkpt lat="48.038300" lon="6.681530">
						<ele>431</ele>
						<time>2023-07-03T07:48:58Z</time>
					</trkpt>
					<trkpt lat="48.038370" lon="6.681500">
						<ele>431</ele>
						<time>2023-07-03T07:48:59Z</time>
					</trkpt>
					<trkpt lat="48.038520" lon="6.681540">
						<ele>432</ele>
						<time>2023-07-03T07:49:02Z</time>
					</trkpt>
					<trkpt lat="48.038590" lon="6.681540">
						<ele>433</ele>
						<time>2023-07-03T07:49:03Z</time>
					</trkpt>
					<trkpt lat="48.038650" lon="6.681500">
						<ele>433</ele>
						<time>2023-07-03T07:49:05Z</time>
					</trkpt>
					<trkpt lat="48.038840" lon="6.681100">
						<ele>433</ele>
						<time>2023-07-03T07:49:10Z</time>
					</trkpt>
					<trkpt lat="48.038710" lon="6.680880">
						<ele>432</ele>
						<time>2023-07-03T07:49:14Z</time>
					</trkpt>
					<trkpt lat="48.038620" lon="6.680330">
						<ele>430</ele>
						<time>2023-07-03T07:49:21Z</time>
					</trkpt>
					<trkpt lat="48.038610" lon="6.679970">
						<ele>428</ele>
						<time>2023-07-03T07:49:25Z</time>
					</trkpt>
					<trkpt lat="48.038370" lon="6.678800">
						<ele>423</ele>
						<time>2023-07-03T07:49:39Z</time>
					</trkpt>
					<trkpt lat="48.038370" lon="6.678330">
						<ele>421</ele>
						<time>2023-07-03T07:49:45Z</time>
					</trkpt>
					<trkpt lat="48.038450" lon="6.677850">
						<ele>420</ele>
						<time>2023-07-03T07:49:51Z</time>
					</trkpt>
					<trkpt lat="48.038590" lon="6.677620">
						<ele>420</ele>
						<time>2023-07-03T07:49:55Z</time>
					</trkpt>
					<trkpt lat="48.038620" lon="6.677570">
						<ele>420</ele>
						<time>2023-07-03T07:49:55Z</time>
					</trkpt>
					<trkpt lat="48.038750" lon="6.677380">
						<ele>420</ele>
						<time>2023-07-03T07:49:59Z</time>
					</trkpt>
					<trkpt lat="48.038800" lon="6.677270">
						<ele>421</ele>
						<time>2023-07-03T07:50:00Z</time>
					</trkpt>
					<trkpt lat="48.038820" lon="6.677140">
						<ele>421</ele>
						<time>2023-07-03T07:50:02Z</time>
					</trkpt>
					<trkpt lat="48.038850" lon="6.676300">
						<ele>425</ele>
						<time>2023-07-03T07:50:12Z</time>
					</trkpt>
					<trkpt lat="48.038820" lon="6.676200">
						<ele>425</ele>
						<time>2023-07-03T07:50:13Z</time>
					</trkpt>
					<trkpt lat="48.038780" lon="6.676150">
						<ele>425</ele>
						<time>2023-07-03T07:50:14Z</time>
					</trkpt>
					<trkpt lat="48.038450" lon="6.676380">
						<ele>422</ele>
						<time>2023-07-03T07:50:21Z</time>
					</trkpt>
					<trkpt lat="48.038330" lon="6.676460">
						<ele>421</ele>
						<time>2023-07-03T07:50:23Z</time>
					</trkpt>
					<trkpt lat="48.038200" lon="6.676450">
						<ele>421</ele>
						<time>2023-07-03T07:50:25Z</time>
					</trkpt>
					<trkpt lat="48.037810" lon="6.676060">
						<ele>422</ele>
						<time>2023-07-03T07:50:34Z</time>
					</trkpt>
					<trkpt lat="48.037130" lon="6.675710">
						<ele>424</ele>
						<time>2023-07-03T07:50:46Z</time>
					</trkpt>
					<trkpt lat="48.035980" lon="6.674340">
						<ele>427</ele>
						<time>2023-07-03T07:51:12Z</time>
					</trkpt>
					<trkpt lat="48.034840" lon="6.673750">
						<ele>426</ele>
						<time>2023-07-03T07:51:34Z</time>
					</trkpt>
					<trkpt lat="48.034280" lon="6.673260">
						<ele>427</ele>
						<time>2023-07-03T07:51:45Z</time>
					</trkpt>
					<trkpt lat="48.034020" lon="6.673250">
						<ele>427</ele>
						<time>2023-07-03T07:51:50Z</time>
					</trkpt>
					<trkpt lat="48.033170" lon="6.673330">
						<ele>428</ele>
						<time>2023-07-03T07:52:05Z</time>
					</trkpt>
					<trkpt lat="48.032700" lon="6.673510">
						<ele>428</ele>
						<time>2023-07-03T07:52:14Z</time>
					</trkpt>
					<trkpt lat="48.032540" lon="6.673510">
						<ele>429</ele>
						<time>2023-07-03T07:52:17Z</time>
					</trkpt>
					<trkpt lat="48.031340" lon="6.674100">
						<ele>427</ele>
						<time>2023-07-03T07:52:39Z</time>
					</trkpt>
					<trkpt lat="48.031120" lon="6.674240">
						<ele>427</ele>
						<time>2023-07-03T07:52:43Z</time>
					</trkpt>
					<trkpt lat="48.031010" lon="6.674330">
						<ele>426</ele>
						<time>2023-07-03T07:52:46Z</time>
					</trkpt>
					<trkpt lat="48.030910" lon="6.674440">
						<ele>426</ele>
						<time>2023-07-03T07:52:48Z</time>
					</trkpt>
					<trkpt lat="48.030840" lon="6.674400">
						<ele>426</ele>
						<time>2023-07-03T07:52:49Z</time>
					</trkpt>
					<trkpt lat="48.030800" lon="6.674390">
						<ele>427</ele>
						<time>2023-07-03T07:52:50Z</time>
					</trkpt>
					<trkpt lat="48.030550" lon="6.674570">
						<ele>425</ele>
						<time>2023-07-03T07:52:55Z</time>
					</trkpt>
					<trkpt lat="48.030360" lon="6.674620">
						<ele>424</ele>
						<time>2023-07-03T07:52:58Z</time>
					</trkpt>
					<trkpt lat="48.030240" lon="6.674630">
						<ele>424</ele>
						<time>2023-07-03T07:53:00Z</time>
					</trkpt>
					<trkpt lat="48.030110" lon="6.674600">
						<ele>425</ele>
						<time>2023-07-03T07:53:03Z</time>
					</trkpt>
					<trkpt lat="48.029730" lon="6.674440">
						<ele>427</ele>
						<time>2023-07-03T07:53:10Z</time>
					</trkpt>
					<trkpt lat="48.029460" lon="6.674440">
						<ele>427</ele>
						<time>2023-07-03T07:53:15Z</time>
					</trkpt>
					<trkpt lat="48.029210" lon="6.674510">
						<ele>426</ele>
						<time>2023-07-03T07:53:19Z</time>
					</trkpt>
					<trkpt lat="48.029030" lon="6.674520">
						<ele>426</ele>
						<time>2023-07-03T07:53:22Z</time>
					</trkpt>
					<trkpt lat="48.028420" lon="6.674340">
						<ele>426</ele>
						<time>2023-07-03T07:53:33Z</time>
					</trkpt>
					<trkpt lat="48.028360" lon="6.674350">
						<ele>425</ele>
						<time>2023-07-03T07:53:35Z</time>
					</trkpt>
					<trkpt lat="48.028290" lon="6.674390">
						<ele>425</ele>
						<time>2023-07-03T07:53:36Z</time>
					</trkpt>
					<trkpt lat="48.028100" lon="6.674630">
						<ele>422</ele>
						<time>2023-07-03T07:53:40Z</time>
					</trkpt>
					<trkpt lat="48.028030" lon="6.674660">
						<ele>422</ele>
						<time>2023-07-03T07:53:42Z</time>
					</trkpt>
					<trkpt lat="48.027970" lon="6.674640">
						<ele>421</ele>
						<time>2023-07-03T07:53:43Z</time>
					</trkpt>
					<trkpt lat="48.027870" lon="6.674520">
						<ele>420</ele>
						<time>2023-07-03T07:53:45Z</time>
					</trkpt>
					<trkpt lat="48.027800" lon="6.674390">
						<ele>419</ele>
						<time>2023-07-03T07:53:47Z</time>
					</trkpt>
					<trkpt lat="48.027740" lon="6.674180">
						<ele>418</ele>
						<time>2023-07-03T07:53:50Z</time>
					</trkpt>
					<trkpt lat="48.027710" lon="6.674050">
						<ele>418</ele>
						<time>2023-07-03T07:53:51Z</time>
					</trkpt>
					<trkpt lat="48.027670" lon="6.673540">
						<ele>421</ele>
						<time>2023-07-03T07:53:57Z</time>
					</trkpt>
					<trkpt lat="48.027580" lon="6.673130">
						<ele>421</ele>
						<time>2023-07-03T07:54:03Z</time>
					</trkpt>
					<trkpt lat="48.027460" lon="6.672830">
						<ele>419</ele>
						<time>2023-07-03T07:54:07Z</time>
					</trkpt>
					<trkpt lat="48.027400" lon="6.672770">
						<ele>417</ele>
						<time>2023-07-03T07:54:08Z</time>
					</trkpt>
					<trkpt lat="48.027180" lon="6.672630">
						<ele>412</ele>
						<time>2023-07-03T07:54:12Z</time>
					</trkpt>
					<trkpt lat="48.027050" lon="6.672250">
						<ele>409</ele>
						<time>2023-07-03T07:54:17Z</time>
					</trkpt>
					<trkpt lat="48.027000" lon="6.672170">
						<ele>407</ele>
						<time>2023-07-03T07:54:19Z</time>
					</trkpt>
					<trkpt lat="48.026920" lon="6.672100">
						<ele>406</ele>
						<time>2023-07-03T07:54:20Z</time>
					</trkpt>
					<trkpt lat="48.026830" lon="6.672100">
						<ele>404</ele>
						<time>2023-07-03T07:54:22Z</time>
					</trkpt>
					<trkpt lat="48.026870" lon="6.672030">
						<ele>404</ele>
						<time>2023-07-03T07:54:23Z</time>
					</trkpt>
					<trkpt lat="48.026890" lon="6.671920">
						<ele>404</ele>
						<time>2023-07-03T07:54:24Z</time>
					</trkpt>
					<trkpt lat="48.026890" lon="6.671710">
						<ele>404</ele>
						<time>2023-07-03T07:54:27Z</time>
					</trkpt>
					<trkpt lat="48.026810" lon="6.671400">
						<ele>401</ele>
						<time>2023-07-03T07:54:31Z</time>
					</trkpt>
					<trkpt lat="48.026860" lon="6.670960">
						<ele>400</ele>
						<time>2023-07-03T07:54:36Z</time>
					</trkpt>
					<trkpt lat="48.026880" lon="6.670560">
						<ele>399</ele>
						<time>2023-07-03T07:54:41Z</time>
					</trkpt>
					<trkpt lat="48.026900" lon="6.670400">
						<ele>399</ele>
						<time>2023-07-03T07:54:43Z</time>
					</trkpt>
					<trkpt lat="48.027030" lon="6.670070">
						<ele>399</ele>
						<time>2023-07-03T07:54:47Z</time>
					</trkpt>
					<trkpt lat="48.027040" lon="6.669930">
						<ele>399</ele>
						<time>2023-07-03T07:54:49Z</time>
					</trkpt>
					<trkpt lat="48.027000" lon="6.669760">
						<ele>399</ele>
						<time>2023-07-03T07:54:51Z</time>
					</trkpt>
					<trkpt lat="48.026790" lon="6.669310">
						<ele>397</ele>
						<time>2023-07-03T07:54:58Z</time>
					</trkpt>
					<trkpt lat="48.026440" lon="6.669400">
						<ele>396</ele>
						<time>2023-07-03T07:55:04Z</time>
					</trkpt>
					<trkpt lat="48.026390" lon="6.669120">
						<ele>396</ele>
						<time>2023-07-03T07:55:07Z</time>
					</trkpt>
					<trkpt lat="48.026200" lon="6.668300">
						<ele>396</ele>
						<time>2023-07-03T07:55:18Z</time>
					</trkpt>
					<trkpt lat="48.026190" lon="6.668170">
						<ele>396</ele>
						<time>2023-07-03T07:55:19Z</time>
					</trkpt>
					<trkpt lat="48.026200" lon="6.667990">
						<ele>397</ele>
						<time>2023-07-03T07:55:22Z</time>
					</trkpt>
					<trkpt lat="48.026280" lon="6.667610">
						<ele>397</ele>
						<time>2023-07-03T07:55:26Z</time>
					</trkpt>
					<trkpt lat="48.026420" lon="6.667170">
						<ele>399</ele>
						<time>2023-07-03T07:55:32Z</time>
					</trkpt>
					<trkpt lat="48.026500" lon="6.666630">
						<ele>401</ele>
						<time>2023-07-03T07:55:39Z</time>
					</trkpt>
					<trkpt lat="48.026470" lon="6.665960">
						<ele>401</ele>
						<time>2023-07-03T07:55:47Z</time>
					</trkpt>
					<trkpt lat="48.026410" lon="6.665550">
						<ele>402</ele>
						<time>2023-07-03T07:55:52Z</time>
					</trkpt>
					<trkpt lat="48.026070" lon="6.665010">
						<ele>399</ele>
						<time>2023-07-03T07:56:00Z</time>
					</trkpt>
					<trkpt lat="48.025920" lon="6.664810">
						<ele>397</ele>
						<time>2023-07-03T07:56:04Z</time>
					</trkpt>
					<trkpt lat="48.025840" lon="6.664450">
						<ele>396</ele>
						<time>2023-07-03T07:56:09Z</time>
					</trkpt>
					<trkpt lat="48.025740" lon="6.663670">
						<ele>397</ele>
						<time>2023-07-03T07:56:18Z</time>
					</trkpt>
					<trkpt lat="48.025720" lon="6.663300">
						<ele>397</ele>
						<time>2023-07-03T07:56:22Z</time>
					</trkpt>
					<trkpt lat="48.025740" lon="6.662740">
						<ele>398</ele>
						<time>2023-07-03T07:56:29Z</time>
					</trkpt>
					<trkpt lat="48.025720" lon="6.662350">
						<ele>398</ele>
						<time>2023-07-03T07:56:34Z</time>
					</trkpt>
					<trkpt lat="48.025680" lon="6.662100">
						<ele>399</ele>
						<time>2023-07-03T07:56:37Z</time>
					</trkpt>
					<trkpt lat="48.025140" lon="6.660690">
						<ele>396</ele>
						<time>2023-07-03T07:56:56Z</time>
					</trkpt>
					<trkpt lat="48.024970" lon="6.660380">
						<ele>394</ele>
						<time>2023-07-03T07:57:01Z</time>
					</trkpt>
					<trkpt lat="48.024640" lon="6.659890">
						<ele>394</ele>
						<time>2023-07-03T07:57:09Z</time>
					</trkpt>
					<trkpt lat="48.023800" lon="6.659070">
						<ele>395</ele>
						<time>2023-07-03T07:57:27Z</time>
					</trkpt>
					<trkpt lat="48.023430" lon="6.658850">
						<ele>394</ele>
						<time>2023-07-03T07:57:34Z</time>
					</trkpt>
					<trkpt lat="48.023240" lon="6.658770">
						<ele>394</ele>
						<time>2023-07-03T07:57:38Z</time>
					</trkpt>
					<trkpt lat="48.023110" lon="6.658680">
						<ele>394</ele>
						<time>2023-07-03T07:57:40Z</time>
					</trkpt>
					<trkpt lat="48.023340" lon="6.658230">
						<ele>394</ele>
						<time>2023-07-03T07:57:47Z</time>
					</trkpt>
					<trkpt lat="48.023470" lon="6.657860">
						<ele>396</ele>
						<time>2023-07-03T07:57:52Z</time>
					</trkpt>
					<trkpt lat="48.023480" lon="6.657770">
						<ele>396</ele>
						<time>2023-07-03T07:57:53Z</time>
					</trkpt>
					<trkpt lat="48.023860" lon="6.657750">
						<ele>398</ele>
						<time>2023-07-03T07:58:00Z</time>
					</trkpt>
					<trkpt lat="48.024150" lon="6.657600">
						<ele>400</ele>
						<time>2023-07-03T07:58:05Z</time>
					</trkpt>
					<trkpt lat="48.024350" lon="6.657390">
						<ele>402</ele>
						<time>2023-07-03T07:58:10Z</time>
					</trkpt>
					<trkpt lat="48.024600" lon="6.657220">
						<ele>404</ele>
						<time>2023-07-03T07:58:14Z</time>
					</trkpt>
					<trkpt lat="48.024680" lon="6.657180">
						<ele>405</ele>
						<time>2023-07-03T07:58:16Z</time>
					</trkpt>
					<trkpt lat="48.024780" lon="6.657180">
						<ele>405</ele>
						<time>2023-07-03T07:58:18Z</time>
					</trkpt>
					<trkpt lat="48.025110" lon="6.657380">
						<ele>406</ele>
						<time>2023-07-03T07:58:24Z</time>
					</trkpt>
					<trkpt lat="48.025300" lon="6.657550">
						<ele>407</ele>
						<time>2023-07-03T07:58:28Z</time>
					</trkpt>
					<trkpt lat="48.025470" lon="6.657770">
						<ele>408</ele>
						<time>2023-07-03T07:58:32Z</time>
					</trkpt>
					<trkpt lat="48.025750" lon="6.658310">
						<ele>409</ele>
						<time>2023-07-03T07:58:40Z</time>
					</trkpt>
					<trkpt lat="48.025990" lon="6.658620">
						<ele>412</ele>
						<time>2023-07-03T07:58:46Z</time>
					</trkpt>
					<trkpt lat="48.026110" lon="6.658650">
						<ele>414</ele>
						<time>2023-07-03T07:58:48Z</time>
					</trkpt>
					<trkpt lat="48.026180" lon="6.658620">
						<ele>416</ele>
						<time>2023-07-03T07:58:49Z</time>
					</trkpt>
					<trkpt lat="48.026290" lon="6.658510">
						<ele>418</ele>
						<time>2023-07-03T07:58:52Z</time>
					</trkpt>
					<trkpt lat="48.026360" lon="6.658070">
						<ele>421</ele>
						<time>2023-07-03T07:58:57Z</time>
					</trkpt>
					<trkpt lat="48.026480" lon="6.657670">
						<ele>424</ele>
						<time>2023-07-03T07:59:02Z</time>
					</trkpt>
					<trkpt lat="48.026590" lon="6.657470">
						<ele>426</ele>
						<time>2023-07-03T07:59:05Z</time>
					</trkpt>
					<trkpt lat="48.026750" lon="6.657320">
						<ele>431</ele>
						<time>2023-07-03T07:59:09Z</time>
					</trkpt>
					<trkpt lat="48.027470" lon="6.657010">
						<ele>448</ele>
						<time>2023-07-03T07:59:22Z</time>
					</trkpt>
					<trkpt lat="48.027600" lon="6.656690">
						<ele>452</ele>
						<time>2023-07-03T07:59:26Z</time>
					</trkpt>
					<trkpt lat="48.028190" lon="6.654670">
						<ele>484</ele>
						<time>2023-07-03T07:59:53Z</time>
					</trkpt>
					<trkpt lat="48.028240" lon="6.654510">
						<ele>485</ele>
						<time>2023-07-03T07:59:55Z</time>
					</trkpt>
					<trkpt lat="48.028280" lon="6.654210">
						<ele>486</ele>
						<time>2023-07-03T07:59:58Z</time>
					</trkpt>
					<trkpt lat="48.028220" lon="6.653910">
						<ele>487</ele>
						<time>2023-07-03T08:00:02Z</time>
					</trkpt>
					<trkpt lat="48.027980" lon="6.653140">
						<ele>491</ele>
						<time>2023-07-03T08:00:12Z</time>
					</trkpt>
					<trkpt lat="48.027860" lon="6.652200">
						<ele>500</ele>
						<time>2023-07-03T08:00:24Z</time>
					</trkpt>
					<trkpt lat="48.027800" lon="6.652040">
						<ele>500</ele>
						<time>2023-07-03T08:00:26Z</time>
					</trkpt>
					<trkpt lat="48.027720" lon="6.651860">
						<ele>500</ele>
						<time>2023-07-03T08:00:28Z</time>
					</trkpt>
					<trkpt lat="48.027680" lon="6.651610">
						<ele>501</ele>
						<time>2023-07-03T08:00:31Z</time>
					</trkpt>
					<trkpt lat="48.027670" lon="6.651320">
						<ele>504</ele>
						<time>2023-07-03T08:00:35Z</time>
					</trkpt>
					<trkpt lat="48.027700" lon="6.650910">
						<ele>508</ele>
						<time>2023-07-03T08:00:40Z</time>
					</trkpt>
					<trkpt lat="48.027690" lon="6.650750">
						<ele>510</ele>
						<time>2023-07-03T08:00:42Z</time>
					</trkpt>
					<trkpt lat="48.027660" lon="6.650600">
						<ele>511</ele>
						<time>2023-07-03T08:00:44Z</time>
					</trkpt>
					<trkpt lat="48.027230" lon="6.649570">
						<ele>513</ele>
						<time>2023-07-03T08:00:58Z</time>
					</trkpt>
					<trkpt lat="48.026970" lon="6.648770">
						<ele>514</ele>
						<time>2023-07-03T08:01:09Z</time>
					</trkpt>
					<trkpt lat="48.026930" lon="6.648420">
						<ele>516</ele>
						<time>2023-07-03T08:01:13Z</time>
					</trkpt>
					<trkpt lat="48.026960" lon="6.648130">
						<ele>517</ele>
						<time>2023-07-03T08:01:16Z</time>
					</trkpt>
					<trkpt lat="48.027000" lon="6.648020">
						<ele>518</ele>
						<time>2023-07-03T08:01:18Z</time>
					</trkpt>
					<trkpt lat="48.027070" lon="6.647920">
						<ele>519</ele>
						<time>2023-07-03T08:01:19Z</time>
					</trkpt>
					<trkpt lat="48.027430" lon="6.647570">
						<ele>529</ele>
						<time>2023-07-03T08:01:27Z</time>
					</trkpt>
					<trkpt lat="48.027490" lon="6.647460">
						<ele>531</ele>
						<time>2023-07-03T08:01:29Z</time>
					</trkpt>
					<trkpt lat="48.027620" lon="6.646880">
						<ele>539</ele>
						<time>2023-07-03T08:01:36Z</time>
					</trkpt>
					<trkpt lat="48.027710" lon="6.646680">
						<ele>542</ele>
						<time>2023-07-03T08:01:39Z</time>
					</trkpt>
					<trkpt lat="48.027720" lon="6.646590">
						<ele>544</ele>
						<time>2023-07-03T08:01:40Z</time>
					</trkpt>
					<trkpt lat="48.027690" lon="6.646490">
						<ele>546</ele>
						<time>2023-07-03T08:01:41Z</time>
					</trkpt>
					<trkpt lat="48.027640" lon="6.646440">
						<ele>546</ele>
						<time>2023-07-03T08:01:42Z</time>
					</trkpt>
					<trkpt lat="48.027420" lon="6.646310">
						<ele>544</ele>
						<time>2023-07-03T08:01:47Z</time>
					</trkpt>
					<trkpt lat="48.027180" lon="6.646130">
						<ele>540</ele>
						<time>2023-07-03T08:01:51Z</time>
					</trkpt>
					<trkpt lat="48.026940" lon="6.645760">
						<ele>538</ele>
						<time>2023-07-03T08:01:58Z</time>
					</trkpt>
					<trkpt lat="48.026750" lon="6.645400">
						<ele>537</ele>
						<time>2023-07-03T08:02:03Z</time>
					</trkpt>
					<trkpt lat="48.026710" lon="6.645190">
						<ele>539</ele>
						<time>2023-07-03T08:02:06Z</time>
					</trkpt>
					<trkpt lat="48.026720" lon="6.644980">
						<ele>542</ele>
						<time>2023-07-03T08:02:08Z</time>
					</trkpt>
					<trkpt lat="48.026830" lon="6.644150">
						<ele>556</ele>
						<time>2023-07-03T08:02:18Z</time>
					</trkpt>
					<trkpt lat="48.026830" lon="6.644040">
						<ele>559</ele>
						<time>2023-07-03T08:02:19Z</time>
					</trkpt>
					<trkpt lat="48.026800" lon="6.643910">
						<ele>560</ele>
						<time>2023-07-03T08:02:21Z</time>
					</trkpt>
					<trkpt lat="48.026580" lon="6.643670">
						<ele>559</ele>
						<time>2023-07-03T08:02:26Z</time>
					</trkpt>
					<trkpt lat="48.026310" lon="6.643470">
						<ele>557</ele>
						<time>2023-07-03T08:02:31Z</time>
					</trkpt>
					<trkpt lat="48.026280" lon="6.643400">
						<ele>558</ele>
						<time>2023-07-03T08:02:32Z</time>
					</trkpt>
					<trkpt lat="48.026270" lon="6.643330">
						<ele>559</ele>
						<time>2023-07-03T08:02:33Z</time>
					</trkpt>
					<trkpt lat="48.026170" lon="6.643200">
						<ele>559</ele>
						<time>2023-07-03T08:02:36Z</time>
					</trkpt>
					<trkpt lat="48.025980" lon="6.642450">
						<ele>565</ele>
						<time>2023-07-03T08:02:45Z</time>
					</trkpt>
					<trkpt lat="48.025850" lon="6.642150">
						<ele>564</ele>
						<time>2023-07-03T08:02:49Z</time>
					</trkpt>
					<trkpt lat="48.025610" lon="6.641620">
						<ele>565</ele>
						<time>2023-07-03T08:02:57Z</time>
					</trkpt>
					<trkpt lat="48.025450" lon="6.641320">
						<ele>568</ele>
						<time>2023-07-03T08:03:02Z</time>
					</trkpt>
					<trkpt lat="48.025310" lon="6.641130">
						<ele>568</ele>
						<time>2023-07-03T08:03:05Z</time>
					</trkpt>
					<trkpt lat="48.025130" lon="6.640950">
						<ele>565</ele>
						<time>2023-07-03T08:03:09Z</time>
					</trkpt>
					<trkpt lat="48.024890" lon="6.640760">
						<ele>561</ele>
						<time>2023-07-03T08:03:14Z</time>
					</trkpt>
					<trkpt lat="48.024430" lon="6.639750">
						<ele>560</ele>
						<time>2023-07-03T08:03:28Z</time>
					</trkpt>
					<trkpt lat="48.024250" lon="6.639130">
						<ele>560</ele>
						<time>2023-07-03T08:03:36Z</time>
					</trkpt>
					<trkpt lat="48.023890" lon="6.637210">
						<ele>571</ele>
						<time>2023-07-03T08:04:00Z</time>
					</trkpt>
					<trkpt lat="48.023850" lon="6.636810">
						<ele>577</ele>
						<time>2023-07-03T08:04:05Z</time>
					</trkpt>
					<trkpt lat="48.023940" lon="6.636100">
						<ele>581</ele>
						<time>2023-07-03T08:04:13Z</time>
					</trkpt>
					<trkpt lat="48.023940" lon="6.635750">
						<ele>582</ele>
						<time>2023-07-03T08:04:17Z</time>
					</trkpt>
					<trkpt lat="48.023880" lon="6.635300">
						<ele>584</ele>
						<time>2023-07-03T08:04:23Z</time>
					</trkpt>
					<trkpt lat="48.023910" lon="6.634930">
						<ele>585</ele>
						<time>2023-07-03T08:04:27Z</time>
					</trkpt>
					<trkpt lat="48.024030" lon="6.634160">
						<ele>585</ele>
						<time>2023-07-03T08:04:37Z</time>
					</trkpt>
					<trkpt lat="48.024250" lon="6.633230">
						<ele>576</ele>
						<time>2023-07-03T08:04:48Z</time>
					</trkpt>
					<trkpt lat="48.024370" lon="6.632420">
						<ele>576</ele>
						<time>2023-07-03T08:04:58Z</time>
					</trkpt>
					<trkpt lat="48.024480" lon="6.631890">
						<ele>573</ele>
						<time>2023-07-03T08:05:05Z</time>
					</trkpt>
					<trkpt lat="48.024690" lon="6.631020">
						<ele>570</ele>
						<time>2023-07-03T08:05:16Z</time>
					</trkpt>
					<trkpt lat="48.024810" lon="6.630660">
						<ele>567</ele>
						<time>2023-07-03T08:05:21Z</time>
					</trkpt>
					<trkpt lat="48.024980" lon="6.630310">
						<ele>563</ele>
						<time>2023-07-03T08:05:26Z</time>
					</trkpt>
					<trkpt lat="48.025070" lon="6.630180">
						<ele>562</ele>
						<time>2023-07-03T08:05:28Z</time>
					</trkpt>
					<trkpt lat="48.025080" lon="6.630050">
						<ele>559</ele>
						<time>2023-07-03T08:05:30Z</time>
					</trkpt>
					<trkpt lat="48.025390" lon="6.629360">
						<ele>555</ele>
						<time>2023-07-03T08:05:40Z</time>
					</trkpt>
					<trkpt lat="48.025580" lon="6.628770">
						<ele>549</ele>
						<time>2023-07-03T08:05:47Z</time>
					</trkpt>
					<trkpt lat="48.025710" lon="6.628450">
						<ele>546</ele>
						<time>2023-07-03T08:05:52Z</time>
					</trkpt>
					<trkpt lat="48.025860" lon="6.628300">
						<ele>545</ele>
						<time>2023-07-03T08:05:55Z</time>
					</trkpt>
					<trkpt lat="48.026040" lon="6.628170">
						<ele>543</ele>
						<time>2023-07-03T08:05:59Z</time>
					</trkpt>
					<trkpt lat="48.026180" lon="6.628150">
						<ele>544</ele>
						<time>2023-07-03T08:06:01Z</time>
					</trkpt>
					<trkpt lat="48.026370" lon="6.628120">
						<ele>545</ele>
						<time>2023-07-03T08:06:05Z</time>
					</trkpt>
					<trkpt lat="48.026480" lon="6.628030">
						<ele>544</ele>
						<time>2023-07-03T08:06:07Z</time>
					</trkpt>
					<trkpt lat="48.026980" lon="6.627270">
						<ele>534</ele>
						<time>2023-07-03T08:06:19Z</time>
					</trkpt>
					<trkpt lat="48.027380" lon="6.626880">
						<ele>531</ele>
						<time>2023-07-03T08:06:28Z</time>
					</trkpt>
					<trkpt lat="48.027680" lon="6.626690">
						<ele>533</ele>
						<time>2023-07-03T08:06:34Z</time>
					</trkpt>
					<trkpt lat="48.027830" lon="6.626560">
						<ele>534</ele>
						<time>2023-07-03T08:06:37Z</time>
					</trkpt>
					<trkpt lat="48.027910" lon="6.626390">
						<ele>534</ele>
						<time>2023-07-03T08:06:39Z</time>
					</trkpt>
					<trkpt lat="48.027990" lon="6.626050">
						<ele>531</ele>
						<time>2023-07-03T08:06:44Z</time>
					</trkpt>
					<trkpt lat="48.028010" lon="6.625630">
						<ele>528</ele>
						<time>2023-07-03T08:06:49Z</time>
					</trkpt>
					<trkpt lat="48.027990" lon="6.625370">
						<ele>525</ele>
						<time>2023-07-03T08:06:52Z</time>
					</trkpt>
					<trkpt lat="48.027990" lon="6.624410">
						<ele>518</ele>
						<time>2023-07-03T08:07:03Z</time>
					</trkpt>
					<trkpt lat="48.028030" lon="6.624220">
						<ele>518</ele>
						<time>2023-07-03T08:07:05Z</time>
					</trkpt>
					<trkpt lat="48.028270" lon="6.623510">
						<ele>517</ele>
						<time>2023-07-03T08:07:15Z</time>
					</trkpt>
					<trkpt lat="48.028290" lon="6.623310">
						<ele>516</ele>
						<time>2023-07-03T08:07:17Z</time>
					</trkpt>
					<trkpt lat="48.028270" lon="6.623130">
						<ele>516</ele>
						<time>2023-07-03T08:07:20Z</time>
					</trkpt>
					<trkpt lat="48.028210" lon="6.622950">
						<ele>514</ele>
						<time>2023-07-03T08:07:22Z</time>
					</trkpt>
					<trkpt lat="48.028020" lon="6.623080">
						<ele>512</ele>
						<time>2023-07-03T08:07:26Z</time>
					</trkpt>
					<trkpt lat="48.027790" lon="6.623160">
						<ele>508</ele>
						<time>2023-07-03T08:07:30Z</time>
					</trkpt>
					<trkpt lat="48.027580" lon="6.623400">
						<ele>506</ele>
						<time>2023-07-03T08:07:35Z</time>
					</trkpt>
					<trkpt lat="48.027250" lon="6.623900">
						<ele>503</ele>
						<time>2023-07-03T08:07:43Z</time>
					</trkpt>
					<trkpt lat="48.027170" lon="6.624090">
						<ele>502</ele>
						<time>2023-07-03T08:07:46Z</time>
					</trkpt>
					<trkpt lat="48.026880" lon="6.625210">
						<ele>504</ele>
						<time>2023-07-03T08:08:00Z</time>
					</trkpt>
					<trkpt lat="48.026760" lon="6.625440">
						<ele>505</ele>
						<time>2023-07-03T08:08:03Z</time>
					</trkpt>
					<trkpt lat="48.026610" lon="6.625570">
						<ele>504</ele>
						<time>2023-07-03T08:08:06Z</time>
					</trkpt>
					<trkpt lat="48.025560" lon="6.625940">
						<ele>501</ele>
						<time>2023-07-03T08:08:26Z</time>
					</trkpt>
					<trkpt lat="48.025430" lon="6.625910">
						<ele>501</ele>
						<time>2023-07-03T08:08:28Z</time>
					</trkpt>
					<trkpt lat="48.025370" lon="6.625780">
						<ele>499</ele>
						<time>2023-07-03T08:08:30Z</time>
					</trkpt>
					<trkpt lat="48.025340" lon="6.625620">
						<ele>497</ele>
						<time>2023-07-03T08:08:32Z</time>
					</trkpt>
					<trkpt lat="48.025390" lon="6.625120">
						<ele>490</ele>
						<time>2023-07-03T08:08:38Z</time>
					</trkpt>
					<trkpt lat="48.025370" lon="6.624960">
						<ele>487</ele>
						<time>2023-07-03T08:08:40Z</time>
					</trkpt>
					<trkpt lat="48.025320" lon="6.624870">
						<ele>486</ele>
						<time>2023-07-03T08:08:41Z</time>
					</trkpt>
					<trkpt lat="48.025300" lon="6.624820">
						<ele>486</ele>
						<time>2023-07-03T08:08:42Z</time>
					</trkpt>
					<trkpt lat="48.025210" lon="6.624760">
						<ele>484</ele>
						<time>2023-07-03T08:08:44Z</time>
					</trkpt>
					<trkpt lat="48.024870" lon="6.624760">
						<ele>484</ele>
						<time>2023-07-03T08:08:50Z</time>
					</trkpt>
					<trkpt lat="48.024730" lon="6.624710">
						<ele>484</ele>
						<time>2023-07-03T08:08:52Z</time>
					</trkpt>
					<trkpt lat="48.024350" lon="6.624500">
						<ele>482</ele>
						<time>2023-07-03T08:08:59Z</time>
					</trkpt>
					<trkpt lat="48.024120" lon="6.624460">
						<ele>483</ele>
						<time>2023-07-03T08:09:04Z</time>
					</trkpt>
					<trkpt lat="48.023960" lon="6.624390">
						<ele>484</ele>
						<time>2023-07-03T08:09:07Z</time>
					</trkpt>
					<trkpt lat="48.023720" lon="6.624230">
						<ele>485</ele>
						<time>2023-07-03T08:09:11Z</time>
					</trkpt>
					<trkpt lat="48.023500" lon="6.624020">
						<ele>484</ele>
						<time>2023-07-03T08:09:16Z</time>
					</trkpt>
					<trkpt lat="48.022790" lon="6.623140">
						<ele>467</ele>
						<time>2023-07-03T08:09:32Z</time>
					</trkpt>
					<trkpt lat="48.022600" lon="6.623010">
						<ele>465</ele>
						<time>2023-07-03T08:09:36Z</time>
					</trkpt>
					<trkpt lat="48.022460" lon="6.623040">
						<ele>465</ele>
						<time>2023-07-03T08:09:38Z</time>
					</trkpt>
					<trkpt lat="48.021490" lon="6.623890">
						<ele>469</ele>
						<time>2023-07-03T08:09:58Z</time>
					</trkpt>
					<trkpt lat="48.021040" lon="6.624210">
						<ele>469</ele>
						<time>2023-07-03T08:10:07Z</time>
					</trkpt>
					<trkpt lat="48.020980" lon="6.624220">
						<ele>468</ele>
						<time>2023-07-03T08:10:08Z</time>
					</trkpt>
					<trkpt lat="48.020930" lon="6.624200">
						<ele>467</ele>
						<time>2023-07-03T08:10:09Z</time>
					</trkpt>
					<trkpt lat="48.020890" lon="6.624130">
						<ele>466</ele>
						<time>2023-07-03T08:10:10Z</time>
					</trkpt>
					<trkpt lat="48.020910" lon="6.624020">
						<ele>466</ele>
						<time>2023-07-03T08:10:12Z</time>
					</trkpt>
					<trkpt lat="48.021190" lon="6.623580">
						<ele>464</ele>
						<time>2023-07-03T08:10:19Z</time>
					</trkpt>
					<trkpt lat="48.021330" lon="6.623250">
						<ele>460</ele>
						<time>2023-07-03T08:10:24Z</time>
					</trkpt>
					<trkpt lat="48.021580" lon="6.622470">
						<ele>453</ele>
						<time>2023-07-03T08:10:34Z</time>
					</trkpt>
					<trkpt lat="48.021840" lon="6.621890">
						<ele>451</ele>
						<time>2023-07-03T08:10:42Z</time>
					</trkpt>
					<trkpt lat="48.022090" lon="6.621380">
						<ele>445</ele>
						<time>2023-07-03T08:10:50Z</time>
					</trkpt>
					<trkpt lat="48.022520" lon="6.620160">
						<ele>429</ele>
						<time>2023-07-03T08:11:06Z</time>
					</trkpt>
					<trkpt lat="48.022650" lon="6.619640">
						<ele>424</ele>
						<time>2023-07-03T08:11:13Z</time>
					</trkpt>
					<trkpt lat="48.022670" lon="6.619520">
						<ele>422</ele>
						<time>2023-07-03T08:11:14Z</time>
					</trkpt>
					<trkpt lat="48.022650" lon="6.619240">
						<ele>420</ele>
						<time>2023-07-03T08:11:18Z</time>
					</trkpt>
					<trkpt lat="48.022610" lon="6.619020">
						<ele>418</ele>
						<time>2023-07-03T08:11:20Z</time>
					</trkpt>
					<trkpt lat="48.022420" lon="6.618630">
						<ele>414</ele>
						<time>2023-07-03T08:11:26Z</time>
					</trkpt>
					<trkpt lat="48.022330" lon="6.618290">
						<ele>409</ele>
						<time>2023-07-03T08:11:30Z</time>
					</trkpt>
					<trkpt lat="48.022290" lon="6.617920">
						<ele>405</ele>
						<time>2023-07-03T08:11:35Z</time>
					</trkpt>
					<trkpt lat="48.022290" lon="6.617430">
						<ele>401</ele>
						<time>2023-07-03T08:11:41Z</time>
					</trkpt>
					<trkpt lat="48.022340" lon="6.617240">
						<ele>401</ele>
						<time>2023-07-03T08:11:43Z</time>
					</trkpt>
					<trkpt lat="48.022480" lon="6.616910">
						<ele>400</ele>
						<time>2023-07-03T08:11:48Z</time>
					</trkpt>
					<trkpt lat="48.022550" lon="6.616640">
						<ele>399</ele>
						<time>2023-07-03T08:11:51Z</time>
					</trkpt>
					<trkpt lat="48.022640" lon="6.615760">
						<ele>397</ele>
						<time>2023-07-03T08:12:02Z</time>
					</trkpt>
					<trkpt lat="48.022600" lon="6.615560">
						<ele>396</ele>
						<time>2023-07-03T08:12:04Z</time>
					</trkpt>
					<trkpt lat="48.022380" lon="6.615000">
						<ele>396</ele>
						<time>2023-07-03T08:12:12Z</time>
					</trkpt>
					<trkpt lat="48.022290" lon="6.614320">
						<ele>398</ele>
						<time>2023-07-03T08:12:20Z</time>
					</trkpt>
					<trkpt lat="48.022270" lon="6.613510">
						<ele>399</ele>
						<time>2023-07-03T08:12:30Z</time>
					</trkpt>
					<trkpt lat="48.022180" lon="6.612910">
						<ele>398</ele>
						<time>2023-07-03T08:12:37Z</time>
					</trkpt>
					<trkpt lat="48.022190" lon="6.612820">
						<ele>398</ele>
						<time>2023-07-03T08:12:38Z</time>
					</trkpt>
					<trkpt lat="48.022150" lon="6.612710">
						<ele>398</ele>
						<time>2023-07-03T08:12:40Z</time>
					</trkpt>
					<trkpt lat="48.022100" lon="6.612440">
						<ele>398</ele>
						<time>2023-07-03T08:12:43Z</time>
					</trkpt>
					<trkpt lat="48.022120" lon="6.612080">
						<ele>397</ele>
						<time>2023-07-03T08:12:47Z</time>
					</trkpt>
					<trkpt lat="48.022150" lon="6.611830">
						<ele>397</ele>
						<time>2023-07-03T08:12:51Z</time>
					</trkpt>
					<trkpt lat="48.022160" lon="6.611530">
						<ele>396</ele>
						<time>2023-07-03T08:12:54Z</time>
					</trkpt>
					<trkpt lat="48.022120" lon="6.611290">
						<ele>396</ele>
						<time>2023-07-03T08:12:57Z</time>
					</trkpt>
					<trkpt lat="48.022040" lon="6.611010">
						<ele>395</ele>
						<time>2023-07-03T08:13:01Z</time>
					</trkpt>
					<trkpt lat="48.021920" lon="6.610780">
						<ele>396</ele>
						<time>2023-07-03T08:13:04Z</time>
					</trkpt>
					<trkpt lat="48.021550" lon="6.610170">
						<ele>398</ele>
						<time>2023-07-03T08:13:14Z</time>
					</trkpt>
					<trkpt lat="48.021390" lon="6.609940">
						<ele>398</ele>
						<time>2023-07-03T08:13:18Z</time>
					</trkpt>
					<trkpt lat="48.021400" lon="6.609880">
						<ele>398</ele>
						<time>2023-07-03T08:13:19Z</time>
					</trkpt>
					<trkpt lat="48.021370" lon="6.609780">
						<ele>398</ele>
						<time>2023-07-03T08:13:20Z</time>
					</trkpt>
					<trkpt lat="48.021380" lon="6.609660">
						<ele>398</ele>
						<time>2023-07-03T08:13:21Z</time>
					</trkpt>
					<trkpt lat="48.021390" lon="6.608810">
						<ele>396</ele>
						<time>2023-07-03T08:13:31Z</time>
					</trkpt>
					<trkpt lat="48.021370" lon="6.607340">
						<ele>394</ele>
						<time>2023-07-03T08:13:49Z</time>
					</trkpt>
					<trkpt lat="48.021370" lon="6.604990">
						<ele>394</ele>
						<time>2023-07-03T08:14:17Z</time>
					</trkpt>
					<trkpt lat="48.021430" lon="6.604380">
						<ele>393</ele>
						<time>2023-07-03T08:14:24Z</time>
					</trkpt>
					<trkpt lat="48.021560" lon="6.603720">
						<ele>391</ele>
						<time>2023-07-03T08:14:32Z</time>
					</trkpt>
					<trkpt lat="48.021570" lon="6.603550">
						<ele>390</ele>
						<time>2023-07-03T08:14:34Z</time>
					</trkpt>
					<trkpt lat="48.021550" lon="6.603360">
						<ele>389</ele>
						<time>2023-07-03T08:14:37Z</time>
					</trkpt>
					<trkpt lat="48.021530" lon="6.603230">
						<ele>388</ele>
						<time>2023-07-03T08:14:38Z</time>
					</trkpt>
					<trkpt lat="48.021460" lon="6.603020">
						<ele>387</ele>
						<time>2023-07-03T08:14:41Z</time>
					</trkpt>
					<trkpt lat="48.021020" lon="6.602320">
						<ele>383</ele>
						<time>2023-07-03T08:14:53Z</time>
					</trkpt>
					<trkpt lat="48.021040" lon="6.602250">
						<ele>383</ele>
						<time>2023-07-03T08:14:53Z</time>
					</trkpt>
					<trkpt lat="48.021040" lon="6.602170">
						<ele>383</ele>
						<time>2023-07-03T08:14:54Z</time>
					</trkpt>
					<trkpt lat="48.020990" lon="6.602080">
						<ele>382</ele>
						<time>2023-07-03T08:14:56Z</time>
					</trkpt>
					<trkpt lat="48.020920" lon="6.602050">
						<ele>382</ele>
						<time>2023-07-03T08:14:57Z</time>
					</trkpt>
					<trkpt lat="48.020860" lon="6.602080">
						<ele>382</ele>
						<time>2023-07-03T08:14:58Z</time>
					</trkpt>
					<trkpt lat="48.019520" lon="6.600140">
						<ele>384</ele>
						<time>2023-07-03T08:15:31Z</time>
					</trkpt>
					<trkpt lat="48.019360" lon="6.599940">
						<ele>383</ele>
						<time>2023-07-03T08:15:35Z</time>
					</trkpt>
					<trkpt lat="48.019140" lon="6.599610">
						<ele>382</ele>
						<time>2023-07-03T08:15:41Z</time>
					</trkpt>
					<trkpt lat="48.019080" lon="6.599550">
						<ele>382</ele>
						<time>2023-07-03T08:15:42Z</time>
					</trkpt>
					<trkpt lat="48.018610" lon="6.598860">
						<ele>383</ele>
						<time>2023-07-03T08:15:54Z</time>
					</trkpt>
					<trkpt lat="48.018550" lon="6.598770">
						<ele>384</ele>
						<time>2023-07-03T08:15:55Z</time>
					</trkpt>
					<trkpt lat="48.018340" lon="6.598470">
						<ele>386</ele>
						<time>2023-07-03T08:16:00Z</time>
					</trkpt>
					<trkpt lat="48.017870" lon="6.597780">
						<ele>388</ele>
						<time>2023-07-03T08:16:12Z</time>
					</trkpt>
					<trkpt lat="48.017540" lon="6.597270">
						<ele>388</ele>
						<time>2023-07-03T08:16:21Z</time>
					</trkpt>
					<trkpt lat="48.017160" lon="6.596390">
						<ele>390</ele>
						<time>2023-07-03T08:16:33Z</time>
					</trkpt>
					<trkpt lat="48.017040" lon="6.596190">
						<ele>391</ele>
						<time>2023-07-03T08:16:36Z</time>
					</trkpt>
					<trkpt lat="48.016860" lon="6.595950">
						<ele>392</ele>
						<time>2023-07-03T08:16:41Z</time>
					</trkpt>
					<trkpt lat="48.016800" lon="6.595800">
						<ele>393</ele>
						<time>2023-07-03T08:16:43Z</time>
					</trkpt>
					<trkpt lat="48.016730" lon="6.595990">
						<ele>392</ele>
						<time>2023-07-03T08:16:45Z</time>
					</trkpt>
					<trkpt lat="48.016680" lon="6.596150">
						<ele>392</ele>
						<time>2023-07-03T08:16:47Z</time>
					</trkpt>
					<trkpt lat="48.016240" lon="6.597860">
						<ele>390</ele>
						<time>2023-07-03T08:17:09Z</time>
					</trkpt>
					<trkpt lat="48.016170" lon="6.598110">
						<ele>390</ele>
						<time>2023-07-03T08:17:12Z</time>
					</trkpt>
					<trkpt lat="48.016100" lon="6.598240">
						<ele>389</ele>
						<time>2023-07-03T08:17:14Z</time>
					</trkpt>
					<trkpt lat="48.016050" lon="6.598230">
						<ele>389</ele>
						<time>2023-07-03T08:17:15Z</time>
					</trkpt>
					<trkpt lat="48.015970" lon="6.598270">
						<ele>389</ele>
						<time>2023-07-03T08:17:17Z</time>
					</trkpt>
					<trkpt lat="48.014700" lon="6.596340">
						<ele>392</ele>
						<time>2023-07-03T08:17:49Z</time>
					</trkpt>
					<trkpt lat="48.014610" lon="6.596100">
						<ele>392</ele>
						<time>2023-07-03T08:17:52Z</time>
					</trkpt>
					<trkpt lat="48.014610" lon="6.595990">
						<ele>392</ele>
						<time>2023-07-03T08:17:54Z</time>
					</trkpt>
					<trkpt lat="48.014580" lon="6.595900">
						<ele>391</ele>
						<time>2023-07-03T08:17:55Z</time>
					</trkpt>
					<trkpt lat="48.014510" lon="6.595850">
						<ele>391</ele>
						<time>2023-07-03T08:17:56Z</time>
					</trkpt>
					<trkpt lat="48.014440" lon="6.595640">
						<ele>392</ele>
						<time>2023-07-03T08:17:59Z</time>
					</trkpt>
					<trkpt lat="48.014400" lon="6.595310">
						<ele>393</ele>
						<time>2023-07-03T08:18:03Z</time>
					</trkpt>
					<trkpt lat="48.014360" lon="6.595110">
						<ele>393</ele>
						<time>2023-07-03T08:18:05Z</time>
					</trkpt>
					<trkpt lat="48.014330" lon="6.594820">
						<ele>393</ele>
						<time>2023-07-03T08:18:09Z</time>
					</trkpt>
					<trkpt lat="48.014320" lon="6.593800">
						<ele>394</ele>
						<time>2023-07-03T08:18:21Z</time>
					</trkpt>
					<trkpt lat="48.014260" lon="6.592200">
						<ele>398</ele>
						<time>2023-07-03T08:18:40Z</time>
					</trkpt>
					<trkpt lat="48.014250" lon="6.590640">
						<ele>401</ele>
						<time>2023-07-03T08:18:59Z</time>
					</trkpt>
					<trkpt lat="48.013980" lon="6.590560">
						<ele>404</ele>
						<time>2023-07-03T08:19:04Z</time>
					</trkpt>
					<trkpt lat="48.013640" lon="6.590080">
						<ele>406</ele>
						<time>2023-07-03T08:19:12Z</time>
					</trkpt>
					<trkpt lat="48.013840" lon="6.589500">
						<ele>405</ele>
						<time>2023-07-03T08:19:20Z</time>
					</trkpt>
					<trkpt lat="48.013850" lon="6.589420">
						<ele>405</ele>
						<time>2023-07-03T08:19:21Z</time>
					</trkpt>
					<trkpt lat="48.013840" lon="6.589350">
						<ele>405</ele>
						<time>2023-07-03T08:19:21Z</time>
					</trkpt>
					<trkpt lat="48.012880" lon="6.588060">
						<ele>412</ele>
						<time>2023-07-03T08:19:44Z</time>
					</trkpt>
					<trkpt lat="48.012550" lon="6.587800">
						<ele>414</ele>
						<time>2023-07-03T08:19:51Z</time>
					</trkpt>
					<trkpt lat="48.012530" lon="6.587980">
						<ele>415</ele>
						<time>2023-07-03T08:19:53Z</time>
					</trkpt>
					<trkpt lat="48.012570" lon="6.588060">
						<ele>415</ele>
						<time>2023-07-03T08:19:54Z</time>
					</trkpt>
					<trkpt lat="48.012580" lon="6.588280">
						<ele>415</ele>
						<time>2023-07-03T08:19:57Z</time>
					</trkpt>
					<trkpt lat="48.012630" lon="6.588630">
						<ele>414</ele>
						<time>2023-07-03T08:20:01Z</time>
					</trkpt>
					<trkpt lat="48.012650" lon="6.588760">
						<ele>414</ele>
						<time>2023-07-03T08:20:03Z</time>
					</trkpt>
					</trkseg>
				</trk>
			</gpx>